PORTS® Data Listing: 9414750 Alameda, CA

CO-OPS RAW PORTS DATA

************************      PRELIMINARY DATA      ************************** 

     THIS RAW DATA HAS NOT BEEN SUBJECT TO THE NATIONAL OCEAN SERVICE'S        
     QUALITY CONTROL OR QUALITY ASSURANCE PROCEDURES AND DOES NOT MEET         
     THE CRITERIA AND STANDARDS OF OFFICIAL NATIONAL OCEAN SERVICE             
     DATA.  IT IS RELEASED FOR LIMITED PUBLIC USE AS PRELIMINARY DATA TO       
     BE USED ONLY WITH APPROPRIATE CAUTION.                                    

************************      PRELIMINARY DATA      ************************** 


       CD   -   Calendar date
       T    -   Time
       TZ   -   Timezone
       PW   -   Predicted water level (feet above MLLW)
       OW   -   Observed water level (feet above MLLW)
       WS   -   Wind speed (knots)
       WD   -   Wind direction (degrees true)
       WG   -   Wind gust (knots)
       AT   -   Air temperature (degrees farenheit)
       WT   -   Water temperature (degrees farenheit)
       AP   -   Air pressure (millibars)
       SA   -   Salinty (PSU - Practical Salinity Units)
       SG   -   Specific gravity
       RH   -   Relative humidity
       AG   -   Air gap (feet)
       VI   -   Visibility (nautical miles)

       ** NOTE **
       A variable that has its data fields filled with "9"s, indicates that
       data was not collected for that sample period.
       **********


STATION NAME: Alameda (9414750)
****************************************************************************************************
    CD       T    TZ    PW     OW    WS   WD   WG    AT    WT    AP    SA    SG     RH    AG   VI
****************************************************************************************************
2020/02/20 09:42 PST    6.62   6.88    3  276    5  53.4  55.6 1021.5 -9.9 -9.999 -99.9 -99.99 -9.99
2020/02/20 09:48 PST    6.60   6.87    2  308    4  54.0  55.6 1021.5 -9.9 -9.999 -99.9 -99.99 -9.99
2020/02/20 09:54 PST    6.56   6.84    2  331    6  54.1  55.6 1021.5 -9.9 -9.999 -99.9 -99.99 -9.99
2020/02/20 10:00 PST    6.53   6.79    4  281    5  53.6  55.6 1021.6 -9.9 -9.999 -99.9 -99.99 -9.99
2020/02/20 10:06 PST    6.48   6.74    4  279    6  53.6  55.6 1021.6 -9.9 -9.999 -99.9 -99.99 -9.99
2020/02/20 10:12 PST    6.43   6.71    3  280    5  53.8  55.6 1021.6 -9.9 -9.999 -99.9 -99.99 -9.99
2020/02/20 10:18 PST    6.37   6.66    4  271    5  53.8  55.6 1021.6 -9.9 -9.999 -99.9 -99.99 -9.99
2020/02/20 10:24 PST    6.30   6.56    4  276    5  53.6  55.6 1021.6 -9.9 -9.999 -99.9 -99.99 -9.99
2020/02/20 10:30 PST    6.22   6.49    3  272    4  54.1  55.6 1021.5 -9.9 -9.999 -99.9 -99.99 -9.99
2020/02/20 10:36 PST    6.14   6.41    3  271    4  54.3  55.6 1021.5 -9.9 -9.999 -99.9 -99.99 -9.99
2020/02/20 10:42 PST    6.05   6.32    3  268    4  54.9  55.6 1021.4 -9.9 -9.999 -99.9 -99.99 -9.99
2020/02/20 10:48 PST    5.96   6.21    4  247    5  54.5  55.6 1021.4 -9.9 -9.999 -99.9 -99.99 -9.99
2020/02/20 10:54 PST    5.86   6.07    4  274    5  54.7  55.6 1021.4 -9.9 -9.999 -99.9 -99.99 -9.99
2020/02/20 11:00 PST    5.75   5.93    4  281    5  54.5  55.6 1021.3 -9.9 -9.999 -99.9 -99.99 -9.99
2020/02/20 11:06 PST    5.64   5.81    4  278    6  54.7  55.6 1021.3 -9.9 -9.999 -99.9 -99.99 -9.99
2020/02/20 11:12 PST    5.52   5.68    5  280    6  55.0  55.6 1021.3 -9.9 -9.999 -99.9 -99.99 -9.99
2020/02/20 11:18 PST    5.40   5.55    5  277    7  55.2  55.6 1021.3 -9.9 -9.999 -99.9 -99.99 -9.99
2020/02/20 11:24 PST    5.27   5.40    5  280    7  55.0  55.6 1021.3 -9.9 -9.999 -99.9 -99.99 -9.99
2020/02/20 11:30 PST    5.14   5.25    4  254    5  55.2  55.6 1021.3 -9.9 -9.999 -99.9 -99.99 -9.99
2020/02/20 11:36 PST    5.00   5.10    4  270    5  55.6  55.6 1021.2 -9.9 -9.999 -99.9 -99.99 -9.99
2020/02/20 11:42 PST    4.86   4.97    3  261    5  55.8  55.6 1021.2 -9.9 -9.999 -99.9 -99.99 -9.99
2020/02/20 11:48 PST    4.72   4.81    5  283    5  55.6  55.6 1021.1 -9.9 -9.999 -99.9 -99.99 -9.99
2020/02/20 11:54 PST    4.58   4.65    5  242    5  54.9  55.6 1021.1 -9.9 -9.999 -99.9 -99.99 -9.99
2020/02/20 12:00 PST    4.43   4.48    4  244    5  55.2  55.6 1021.0 -9.9 -9.999 -99.9 -99.99 -9.99
2020/02/20 12:06 PST    4.28   4.32    4  283    5  55.8  55.6 1020.8 -9.9 -9.999 -99.9 -99.99 -9.99
2020/02/20 12:12 PST    4.12   4.15    4  280    4  56.5  55.6 1020.7 -9.9 -9.999 -99.9 -99.99 -9.99
2020/02/20 12:18 PST    3.97   3.99    3  269    4  57.2  55.6 1020.5 -9.9 -9.999 -99.9 -99.99 -9.99
2020/02/20 12:24 PST    3.81   3.82    4  246    4  56.5  55.6 1020.4 -9.9 -9.999 -99.9 -99.99 -9.99
2020/02/20 12:30 PST    3.66   3.66    4  258    6  56.7  55.6 1020.3 -9.9 -9.999 -99.9 -99.99 -9.99
2020/02/20 12:36 PST    3.50   3.49    5  248    6  56.5  55.6 1020.2 -9.9 -9.999 -99.9 -99.99 -9.99
2020/02/20 12:42 PST    3.34   3.32    5  241    6  56.5  55.6 1020.1 -9.9 -9.999 -99.9 -99.99 -9.99
2020/02/20 12:48 PST    3.18   3.13    5  274    6  57.4  55.6 1020.0 -9.9 -9.999 -99.9 -99.99 -9.99
2020/02/20 12:54 PST    3.03   2.94    5  242    6  57.0  55.8 1019.8 -9.9 -9.999 -99.9 -99.99 -9.99
2020/02/20 13:00 PST    2.87   2.78    5  239    6  56.8  55.8 1019.8 -9.9 -9.999 -99.9 -99.99 -9.99
2020/02/20 13:06 PST    2.71   2.62    4  261    6  57.4  55.8 1019.7 -9.9 -9.999 -99.9 -99.99 -9.99
2020/02/20 13:12 PST    2.56   2.46    4  256    5  57.2  55.8 1019.7 -9.9 -9.999 -99.9 -99.99 -9.99
2020/02/20 13:18 PST    2.40   2.31    4  254    5  57.2  55.8 1019.5 -9.9 -9.999 -99.9 -99.99 -9.99
2020/02/20 13:24 PST    2.25   2.16    4  250    5  57.2  55.8 1019.4 -9.9 -9.999 -99.9 -99.99 -9.99
2020/02/20 13:30 PST    2.10   2.01    5  282    8  58.3  55.8 1019.4 -9.9 -9.999 -99.9 -99.99 -9.99
2020/02/20 13:36 PST    1.95   1.87    6  276    8  58.5  55.8 1019.4 -9.9 -9.999 -99.9 -99.99 -9.99
2020/02/20 13:42 PST    1.80   1.72    6  276    7  59.0  55.8 1019.3 -9.9 -9.999 -99.9 -99.99 -9.99
2020/02/20 13:48 PST    1.66   1.59    5  273    8  58.8  55.8 1019.2 -9.9 -9.999 -99.9 -99.99 -9.99
2020/02/20 13:54 PST    1.52   1.48    6  277    7  59.7  55.8 1019.1 -9.9 -9.999 -99.9 -99.99 -9.99
2020/02/20 14:00 PST    1.38   1.36    4  278    6  60.8  55.8 1019.0 -9.9 -9.999 -99.9 -99.99 -9.99
2020/02/20 14:06 PST    1.24   1.24    4  282    6  61.9  55.9 1019.0 -9.9 -9.999 -99.9 -99.99 -9.99
2020/02/20 14:12 PST    1.11   1.11    4  277    5  62.4  55.9 1018.9 -9.9 -9.999 -99.9 -99.99 -9.99
2020/02/20 14:18 PST    0.98   0.97    5  278    7  62.6  55.9 1018.9 -9.9 -9.999 -99.9 -99.99 -9.99
2020/02/20 14:24 PST    0.85   0.82    7  282    8  62.4  55.9 1018.9 -9.9 -9.999 -99.9 -99.99 -9.99
2020/02/20 14:30 PST    0.73   0.70    7  283    9  62.8  55.9 1018.8 -9.9 -9.999 -99.9 -99.99 -9.99
2020/02/20 14:36 PST    0.61   0.61    7  281    8  62.6  55.9 1018.8 -9.9 -9.999 -99.9 -99.99 -9.99
2020/02/20 14:42 PST    0.50   0.53    7  282    8  63.0  56.1 1018.8 -9.9 -9.999 -99.9 -99.99 -9.99
2020/02/20 14:48 PST    0.39   0.43    7  283    9  63.3  55.9 1018.7 -9.9 -9.999 -99.9 -99.99 -9.99
2020/02/20 14:54 PST    0.29   0.29    7  283    8  63.7  56.3 1018.7 -9.9 -9.999 -99.9 -99.99 -9.99
2020/02/20 15:00 PST    0.19   0.16    7  281    9  63.7  56.5 1018.7 -9.9 -9.999 -99.9 -99.99 -9.99
2020/02/20 15:06 PST    0.09   0.06    7  282    8  63.9  56.5 1018.7 -9.9 -9.999 -99.9 -99.99 -9.99
2020/02/20 15:12 PST    0.01  -0.02    7  282    9  63.5  56.7 1018.6 -9.9 -9.999 -99.9 -99.99 -9.99
2020/02/20 15:18 PST   -0.08  -0.09    6  283    9  63.5  56.7 1018.6 -9.9 -9.999 -99.9 -99.99 -9.99
2020/02/20 15:24 PST   -0.15  -0.15    5  286    8  63.9  56.5 1018.6 -9.9 -9.999 -99.9 -99.99 -9.99
2020/02/20 15:30 PST   -0.22  -0.23    5  287    7  63.5  56.5 1018.5 -9.9 -9.999 -99.9 -99.99 -9.99
2020/02/20 15:36 PST   -0.29  -0.31    4  287    6  63.7  56.3 1018.4 -9.9 -9.999 -99.9 -99.99 -9.99
2020/02/20 15:42 PST   -0.35  -0.36    4  288    5  64.2  56.5 1018.4 -9.9 -9.999 -99.9 -99.99 -9.99
2020/02/20 15:48 PST   -0.40  -0.41    5  288    6  64.0  56.7 1018.4 -9.9 -9.999 -99.9 -99.99 -9.99
2020/02/20 15:54 PST   -0.44  -0.47    5  290    6  64.0  56.7 1018.3 -9.9 -9.999 -99.9 -99.99 -9.99
2020/02/20 16:00 PST   -0.48  -0.51    6  285    7  63.0  56.7 1018.3 -9.9 -9.999 -99.9 -99.99 -9.99
2020/02/20 16:06 PST   -0.51  -0.53    5  283    7  63.0  56.7 1018.4 -9.9 -9.999 -99.9 -99.99 -9.99
2020/02/20 16:12 PST   -0.54  -0.55    6  287    7  63.0  56.7 1018.4 -9.9 -9.999 -99.9 -99.99 -9.99
2020/02/20 16:18 PST   -0.55  -0.58    5  286    7  63.1  56.7 1018.4 -9.9 -9.999 -99.9 -99.99 -9.99
2020/02/20 16:24 PST   -0.56  -0.60    5  290    6  62.8  56.8 1018.3 -9.9 -9.999 -99.9 -99.99 -9.99
2020/02/20 16:30 PST   -0.57  -0.63    4  290    6  62.6  56.8 1018.3 -9.9 -9.999 -99.9 -99.99 -9.99
2020/02/20 16:36 PST   -0.57  -0.65    4  291    5  62.1  57.0 1018.3 -9.9 -9.999 -99.9 -99.99 -9.99
2020/02/20 16:42 PST   -0.56  -0.66    4  292    6  61.7  57.0 1018.3 -9.9 -9.999 -99.9 -99.99 -9.99
2020/02/20 16:48 PST   -0.54  -0.63    4  293    6  61.5  57.0 1018.3 -9.9 -9.999 -99.9 -99.99 -9.99
2020/02/20 16:54 PST   -0.52  -0.60    4  294    7  61.2  57.0 1018.2 -9.9 -9.999 -99.9 -99.99 -9.99
2020/02/20 17:00 PST   -0.49  -0.57    3  296    5  61.2  57.0 1018.2 -9.9 -9.999 -99.9 -99.99 -9.99
2020/02/20 17:06 PST   -0.46  -0.53    2  309    4  61.2  57.0 1018.2 -9.9 -9.999 -99.9 -99.99 -9.99
2020/02/20 17:12 PST   -0.41  -0.48    3  307    5  61.2  57.0 1018.2 -9.9 -9.999 -99.9 -99.99 -9.99
2020/02/20 17:18 PST   -0.37  -0.41    3  303    5  61.0  57.0 1018.2 -9.9 -9.999 -99.9 -99.99 -9.99
2020/02/20 17:24 PST   -0.31  -0.35    2  317    4  61.0  57.0 1018.2 -9.9 -9.999 -99.9 -99.99 -9.99
2020/02/20 17:30 PST   -0.25  -0.29    3  288    4  60.8  57.0 1018.3 -9.9 -9.999 -99.9 -99.99 -9.99
2020/02/20 17:36 PST   -0.19  -0.22    2  301    4  60.6  57.0 1018.3 -9.9 -9.999 -99.9 -99.99 -9.99
2020/02/20 17:42 PST   -0.12  -0.13    4  328    4  60.6  57.0 1018.3 -9.9 -9.999 -99.9 -99.99 -9.99
2020/02/20 17:48 PST   -0.05  -0.02    3  333    4  60.6  57.0 1018.3 -9.9 -9.999 -99.9 -99.99 -9.99
2020/02/20 17:54 PST    0.04   0.06    2  327    4  60.8  57.0 1018.3 -9.9 -9.999 -99.9 -99.99 -9.99
2020/02/20 18:00 PST    0.12   0.14    2  337    4  61.0  57.0 1018.4 -9.9 -9.999 -99.9 -99.99 -9.99
2020/02/20 18:06 PST    0.21   0.23    2  333    4  61.0  57.0 1018.4 -9.9 -9.999 -99.9 -99.99 -9.99
2020/02/20 18:12 PST    0.30   0.34    2  315    3  61.0  57.0 1018.5 -9.9 -9.999 -99.9 -99.99 -9.99
2020/02/20 18:18 PST    0.40   0.45    4  288    4  60.1  57.0 1018.5 -9.9 -9.999 -99.9 -99.99 -9.99
2020/02/20 18:24 PST    0.50   0.57    3  293    4  60.1  57.0 1018.5 -9.9 -9.999 -99.9 -99.99 -9.99
2020/02/20 18:30 PST    0.61   0.69    2  300    3  59.5  57.2 1018.6 -9.9 -9.999 -99.9 -99.99 -9.99
2020/02/20 18:36 PST    0.72   0.82    2  339    3  59.9  57.0 1018.6 -9.9 -9.999 -99.9 -99.99 -9.99
2020/02/20 18:42 PST    0.84   0.95    1  317    3  59.9  57.0 1018.6 -9.9 -9.999 -99.9 -99.99 -9.99
2020/02/20 18:48 PST    0.95   1.09    1  325    2  59.9  57.0 1018.7 -9.9 -9.999 -99.9 -99.99 -9.99
2020/02/20 18:54 PST    1.07   1.23    1  304    1  59.9  57.0 1018.7 -9.9 -9.999 -99.9 -99.99 -9.99
2020/02/20 19:00 PST    1.20   1.37    2  321    3  59.9  57.0 1018.7 -9.9 -9.999 -99.9 -99.99 -9.99
2020/02/20 19:06 PST    1.33   1.52    3  288    4  59.7  57.0 1018.8 -9.9 -9.999 -99.9 -99.99 -9.99
2020/02/20 19:12 PST    1.46   1.70    4  294    4  59.4  56.8 1018.8 -9.9 -9.999 -99.9 -99.99 -9.99
2020/02/20 19:18 PST    1.59   1.86    3  300    4  59.5  56.8 1018.8 -9.9 -9.999 -99.9 -99.99 -9.99
2020/02/20 19:24 PST    1.72   1.98    4  297    5  59.2  56.8 1018.8 -9.9 -9.999 -99.9 -99.99 -9.99
2020/02/20 19:30 PST    1.86   2.09    2  324    3  59.4  56.8 1018.9 -9.9 -9.999 -99.9 -99.99 -9.99
2020/02/20 19:36 PST    2.00   2.22    3  316    4  59.5  56.8 1018.8 -9.9 -9.999 -99.9 -99.99 -9.99
2020/02/20 19:42 PST    2.14   2.36    2  313    4  59.4  56.7 1018.8 -9.9 -9.999 -99.9 -99.99 -9.99
2020/02/20 19:48 PST    2.28   2.50    2  313    3  59.4  56.5 1018.8 -9.9 -9.999 -99.9 -99.99 -9.99
2020/02/20 19:54 PST    2.43   2.63    3  299    4  59.4  56.7 1019.0 -9.9 -9.999 -99.9 -99.99 -9.99
2020/02/20 20:00 PST    2.57   2.76    2  305    3  59.4  56.7 1019.0 -9.9 -9.999 -99.9 -99.99 -9.99
2020/02/20 20:06 PST    2.72   2.87    2  303    4  59.0  56.7 1019.1 -9.9 -9.999 -99.9 -99.99 -9.99
2020/02/20 20:12 PST    2.86   2.99    2  293    3  59.0  56.8 1019.2 -9.9 -9.999 -99.9 -99.99 -9.99
2020/02/20 20:18 PST    3.01   3.13    2  327    2  58.8  56.8 1019.2 -9.9 -9.999 -99.9 -99.99 -9.99
2020/02/20 20:24 PST    3.15   3.28    2  325    3  58.6  56.8 1019.4 -9.9 -9.999 -99.9 -99.99 -9.99
2020/02/20 20:30 PST    3.30   3.43    3  303    4  58.6  56.8 1019.4 -9.9 -9.999 -99.9 -99.99 -9.99
2020/02/20 20:36 PST    3.44   3.55    2  307    4  58.5  56.8 1019.4 -9.9 -9.999 -99.9 -99.99 -9.99
2020/02/20 20:42 PST    3.59   3.64    2  307    3  58.3  56.8 1019.5 -9.9 -9.999 -99.9 -99.99 -9.99
2020/02/20 20:48 PST    3.73   3.75    2  314    4  58.1  56.8 1019.5 -9.9 -9.999 -99.9 -99.99 -9.99
2020/02/20 20:54 PST    3.87   3.86    3  323    4  57.9  56.8 1019.6 -9.9 -9.999 -99.9 -99.99 -9.99
2020/02/20 21:00 PST    4.00   3.99    2  316    3  57.9  56.8 1019.7 -9.9 -9.999 -99.9 -99.99 -9.99
2020/02/20 21:06 PST    4.14   4.12    4  334    5  57.9  56.8 1019.7 -9.9 -9.999 -99.9 -99.99 -9.99
2020/02/20 21:12 PST    4.27   4.23    2  334    4  57.7  56.7 1019.8 -9.9 -9.999 -99.9 -99.99 -9.99
2020/02/20 21:18 PST    4.40   4.34    2  325    4  57.9  56.7 1019.8 -9.9 -9.999 -99.9 -99.99 -9.99
2020/02/20 21:24 PST    4.52   4.43    2  323    3  57.9  56.5 1019.8 -9.9 -9.999 -99.9 -99.99 -9.99
2020/02/20 21:30 PST    4.64   4.52    2  310    3  57.7  56.5 1019.8 -9.9 -9.999 -99.9 -99.99 -9.99
2020/02/20 21:36 PST    4.75   4.63    1  315    3  57.9  56.5 1019.8 -9.9 -9.999 -99.9 -99.99 -9.99
2020/02/20 21:42 PST    4.86   4.72    2  302    2  57.9  56.5 1019.8 -9.9 -9.999 -99.9 -99.99 -9.99
2020/02/20 21:48 PST    4.96   4.80    2  294    2  57.7  56.5 1019.8 -9.9 -9.999 -99.9 -99.99 -9.99
2020/02/20 21:54 PST    5.06   4.87    0  326    2  57.6  56.5 1019.7 -9.9 -9.999 -99.9 -99.99 -9.99
2020/02/20 22:00 PST    5.15   4.97    2  349    2  57.2  56.5 1019.8 -9.9 -9.999 -99.9 -99.99 -9.99
2020/02/20 22:06 PST    5.24   5.06    1  339    2  57.0  56.5 1019.8 -9.9 -9.999 -99.9 -99.99 -9.99
2020/02/20 22:12 PST    5.31   5.13    2  328    2  56.8  56.5 1019.7 -9.9 -9.999 -99.9 -99.99 -9.99
2020/02/20 22:18 PST    5.38   5.18    2  292    2  57.2  56.5 1019.7 -9.9 -9.999 -99.9 -99.99 -9.99
2020/02/20 22:24 PST    5.45   5.26    2  303    3  57.2  56.5 1019.7 -9.9 -9.999 -99.9 -99.99 -9.99
2020/02/20 22:30 PST    5.51   5.32    3  292    4  57.2  56.5 1019.7 -9.9 -9.999 -99.9 -99.99 -9.99
2020/02/20 22:36 PST    5.55   5.37    3  313    4  56.8  56.5 1019.8 -9.9 -9.999 -99.9 -99.99 -9.99
2020/02/20 22:42 PST    5.60   5.42    3  324    4  56.7  56.5 1019.8 -9.9 -9.999 -99.9 -99.99 -9.99
2020/02/20 22:48 PST    5.63   5.47    3  316    4  56.7  56.5 1019.8 -9.9 -9.999 -99.9 -99.99 -9.99
2020/02/20 22:54 PST    5.66   5.50    3  319    5  56.5  56.5 1019.8 -9.9 -9.999 -99.9 -99.99 -9.99
2020/02/20 23:00 PST    5.68   5.52    4  313    5  56.3  56.5 1019.7 -9.9 -9.999 -99.9 -99.99 -9.99
2020/02/20 23:06 PST    5.69   5.56    4  300    6  56.5  56.3 1019.7 -9.9 -9.999 -99.9 -99.99 -9.99
2020/02/20 23:12 PST    5.69   5.59    4  302    4  56.5  56.3 1019.7 -9.9 -9.999 -99.9 -99.99 -9.99
2020/02/20 23:18 PST    5.69   5.60    3  318    5  56.5  56.3 1019.6 -9.9 -9.999 -99.9 -99.99 -9.99
2020/02/20 23:24 PST    5.68   5.59    3  333    5  56.3  56.3 1019.6 -9.9 -9.999 -99.9 -99.99 -9.99
2020/02/20 23:30 PST    5.67   5.58    2  315    4  56.3  56.1 1019.6 -9.9 -9.999 -99.9 -99.99 -9.99
2020/02/20 23:36 PST    5.64   5.58    3  349    6  56.3  56.1 1019.5 -9.9 -9.999 -99.9 -99.99 -9.99
2020/02/20 23:42 PST    5.61   5.58    4  346    6  56.3  56.1 1019.4 -9.9 -9.999 -99.9 -99.99 -9.99
2020/02/20 23:48 PST    5.58   5.55    4  343    8  56.1  56.1 1019.4 -9.9 -9.999 -99.9 -99.99 -9.99
2020/02/20 23:54 PST    5.54   5.50    4  345    8  55.9  56.1 1019.4 -9.9 -9.999 -99.9 -99.99 -9.99
2020/02/21 00:00 PST    5.49   5.46    4  323    8  55.6  56.3 1019.4 -9.9 -9.999 -99.9 -99.99 -9.99
2020/02/21 00:06 PST    5.44   5.42    4  327    7  55.6  56.3 1019.4 -9.9 -9.999 -99.9 -99.99 -9.99
2020/02/21 00:12 PST    5.38   5.39    5  328    7  55.4  56.3 1019.4 -9.9 -9.999 -99.9 -99.99 -9.99
2020/02/21 00:18 PST    5.32   5.33    4  341    7  55.4  56.3 1019.4 -9.9 -9.999 -99.9 -99.99 -9.99
2020/02/21 00:24 PST    5.25   5.26    4  322    6  55.4  56.3 1019.4 -9.9 -9.999 -99.9 -99.99 -9.99
2020/02/21 00:30 PST    5.18   5.19    3  318    5  55.2  56.3 1019.4 -9.9 -9.999 -99.9 -99.99 -9.99
2020/02/21 00:36 PST    5.11   5.12    3  319    5  55.2  56.3 1019.4 -9.9 -9.999 -99.9 -99.99 -9.99
2020/02/21 00:42 PST    5.03   5.04    4  331    6  55.0  56.3 1019.3 -9.9 -9.999 -99.9 -99.99 -9.99
2020/02/21 00:48 PST    4.95   4.96    3  328    6  55.0  56.3 1019.2 -9.9 -9.999 -99.9 -99.99 -9.99
2020/02/21 00:54 PST    4.87   4.89    3  317    4  54.9  56.3 1019.2 -9.9 -9.999 -99.9 -99.99 -9.99
2020/02/21 01:00 PST    4.78   4.79    4  317    6  55.0  56.3 1019.1 -9.9 -9.999 -99.9 -99.99 -9.99
2020/02/21 01:06 PST    4.69   4.69    3  334    6  55.2  56.3 1019.1 -9.9 -9.999 -99.9 -99.99 -9.99
2020/02/21 01:12 PST    4.60   4.61    4  353    6  55.2  56.3 1019.1 -9.9 -9.999 -99.9 -99.99 -9.99
2020/02/21 01:18 PST    4.51   4.52    4  336    6  55.4  56.3 1019.0 -9.9 -9.999 -99.9 -99.99 -9.99
2020/02/21 01:24 PST    4.42   4.42    3  338    5  55.4  56.3 1019.0 -9.9 -9.999 -99.9 -99.99 -9.99
2020/02/21 01:30 PST    4.33   4.31    3  331    5  55.4  56.3 1019.1 -9.9 -9.999 -99.9 -99.99 -9.99
2020/02/21 01:36 PST    4.23   4.22    2  330    4  55.4  56.3 1019.1 -9.9 -9.999 -99.9 -99.99 -9.99
2020/02/21 01:42 PST    4.14   4.11    2  332    3  55.4  56.3 1019.0 -9.9 -9.999 -99.9 -99.99 -9.99
2020/02/21 01:48 PST    4.04   4.00    3  352    4  55.4  56.3 1019.0 -9.9 -9.999 -99.9 -99.99 -9.99
2020/02/21 01:54 PST    3.95   3.89    2    1    3  55.2  56.3 1019.0 -9.9 -9.999 -99.9 -99.99 -9.99
2020/02/21 02:00 PST    3.86   3.80    3  346    3  55.2  56.3 1019.0 -9.9 -9.999 -99.9 -99.99 -9.99
2020/02/21 02:06 PST    3.76   3.72    2  340    3  55.4  56.3 1019.0 -9.9 -9.999 -99.9 -99.99 -9.99
2020/02/21 02:12 PST    3.67   3.61    3  352    4  55.6  56.3 1019.0 -9.9 -9.999 -99.9 -99.99 -9.99
2020/02/21 02:18 PST    3.58   3.51    0  304    3  55.6  56.3 1018.9 -9.9 -9.999 -99.9 -99.99 -9.99
2020/02/21 02:24 PST    3.50   3.43    0  107    1  55.2  56.3 1018.9 -9.9 -9.999 -99.9 -99.99 -9.99
2020/02/21 02:30 PST    3.41   3.34    0   90    1  54.5  56.3 1018.8 -9.9 -9.999 -99.9 -99.99 -9.99
2020/02/21 02:36 PST    3.33   3.26    1    5    2  54.7  56.3 1018.9 -9.9 -9.999 -99.9 -99.99 -9.99
2020/02/21 02:42 PST    3.24   3.19    1  321    2  54.7  56.3 1018.9 -9.9 -9.999 -99.9 -99.99 -9.99
2020/02/21 02:48 PST    3.17   3.13    1    9    2  54.7  56.3 1018.8 -9.9 -9.999 -99.9 -99.99 -9.99
2020/02/21 02:54 PST    3.09   3.04    2  318    3  55.2  56.3 1018.7 -9.9 -9.999 -99.9 -99.99 -9.99
2020/02/21 03:00 PST    3.02   2.97    2    3    3  55.0  56.3 1018.7 -9.9 -9.999 -99.9 -99.99 -9.99
2020/02/21 03:06 PST    2.95   2.89    2  341    4  55.0  56.3 1018.7 -9.9 -9.999 -99.9 -99.99 -9.99
2020/02/21 03:12 PST    2.89   2.81    3  349    5  55.2  56.3 1018.6 -9.9 -9.999 -99.9 -99.99 -9.99
2020/02/21 03:18 PST    2.83   2.73    4  360    6  55.0  56.3 1018.6 -9.9 -9.999 -99.9 -99.99 -9.99
2020/02/21 03:24 PST    2.77   2.70    3  356    5  54.9  56.3 1018.6 -9.9 -9.999 -99.9 -99.99 -9.99
2020/02/21 03:30 PST    2.72   2.67    4  348    5  54.9  56.3 1018.5 -9.9 -9.999 -99.9 -99.99 -9.99
2020/02/21 03:36 PST    2.68   2.64    2  319    5  54.7  56.3 1018.6 -9.9 -9.999 -99.9 -99.99 -9.99
2020/02/21 03:42 PST    2.64   2.58    1  343    4  54.5  56.3 1018.6 -9.9 -9.999 -99.9 -99.99 -9.99
2020/02/21 03:48 PST    2.60   2.54    5  350    8  54.7  56.3 1018.5 -9.9 -9.999 -99.9 -99.99 -9.99
2020/02/21 03:54 PST    2.57   2.51    4  357    8  54.3  56.3 1018.5 -9.9 -9.999 -99.9 -99.99 -9.99
2020/02/21 04:00 PST    2.55   2.48    3  341    6  54.5  56.3 1018.5 -9.9 -9.999 -99.9 -99.99 -9.99
2020/02/21 04:06 PST    2.53   2.46    3  349    4  54.5  56.3 1018.5 -9.9 -9.999 -99.9 -99.99 -9.99
2020/02/21 04:12 PST    2.52   2.48    3  352    6  54.5  56.3 1018.5 -9.9 -9.999 -99.9 -99.99 -9.99
2020/02/21 04:18 PST    2.51   2.51    3  340    7  54.5  56.3 1018.6 -9.9 -9.999 -99.9 -99.99 -9.99
2020/02/21 04:24 PST    2.51   2.51    3  345    5  54.5  56.3 1018.7 -9.9 -9.999 -99.9 -99.99 -9.99
2020/02/21 04:30 PST    2.52   2.49    4  342    6  54.7  56.3 1018.7 -9.9 -9.999 -99.9 -99.99 -9.99
2020/02/21 04:36 PST    2.53   2.49    3  352    7  54.7  56.3 1018.7 -9.9 -9.999 -99.9 -99.99 -9.99
2020/02/21 04:42 PST    2.55   2.52    1    9    3  54.5  56.3 1018.8 -9.9 -9.999 -99.9 -99.99 -9.99
2020/02/21 04:48 PST    2.57   2.54    1   50    3  54.1  56.3 1018.8 -9.9 -9.999 -99.9 -99.99 -9.99
2020/02/21 04:54 PST    2.60   2.56    1   46    3  53.6  56.3 1018.8 -9.9 -9.999 -99.9 -99.99 -9.99
2020/02/21 05:00 PST    2.64   2.58    2  360    4  54.0  56.3 1018.8 -9.9 -9.999 -99.9 -99.99 -9.99
2020/02/21 05:06 PST    2.68   2.60    2   31    4  54.1  56.1 1018.8 -9.9 -9.999 -99.9 -99.99 -9.99
2020/02/21 05:12 PST    2.73   2.64    1   36    4  53.8  56.1 1018.8 -9.9 -9.999 -99.9 -99.99 -9.99
2020/02/21 05:18 PST    2.78   2.72    1   75    4  53.2  56.1 1018.9 -9.9 -9.999 -99.9 -99.99 -9.99
2020/02/21 05:24 PST    2.84   2.80    1   55    3  52.5  56.1 1018.9 -9.9 -9.999 -99.9 -99.99 -9.99
2020/02/21 05:30 PST    2.90   2.86    1   82    3  52.7  56.1 1019.0 -9.9 -9.999 -99.9 -99.99 -9.99
2020/02/21 05:36 PST    2.97   2.91    1   99    3  52.2  56.1 1019.0 -9.9 -9.999 -99.9 -99.99 -9.99
2020/02/21 05:42 PST    3.04   2.97    1   83    2  52.5  56.1 1019.0 -9.9 -9.999 -99.9 -99.99 -9.99
2020/02/21 05:48 PST    3.11   3.04    2   99    3  51.8  55.9 1019.0 -9.9 -9.999 -99.9 -99.99 -9.99
2020/02/21 05:54 PST    3.19   3.15    2   92    3  52.0  55.9 1019.0 -9.9 -9.999 -99.9 -99.99 -9.99
2020/02/21 06:00 PST    3.28   3.26    0   83    1  52.0  55.9 1019.0 -9.9 -9.999 -99.9 -99.99 -9.99
2020/02/21 06:06 PST    3.36   3.36    2   92    2  51.4  55.9 1018.9 -9.9 -9.999 -99.9 -99.99 -9.99
2020/02/21 06:12 PST    3.45   3.45    1   63    2  51.3  55.9 1018.9 -9.9 -9.999 -99.9 -99.99 -9.99
2020/02/21 06:18 PST    3.54   3.52    0   49    1  51.1  55.9 1018.9 -9.9 -9.999 -99.9 -99.99 -9.99
2020/02/21 06:24 PST    3.64   3.59    0  238    0  50.7  55.9 1018.9 -9.9 -9.999 -99.9 -99.99 -9.99
2020/02/21 06:30 PST    3.74   3.69    0   71    1  50.7  55.9 1018.9 -9.9 -9.999 -99.9 -99.99 -9.99
2020/02/21 06:36 PST    3.84   3.82    1   70    1  50.7  55.8 1018.9 -9.9 -9.999 -99.9 -99.99 -9.99
2020/02/21 06:42 PST    3.94   3.95    1   91    2  51.1  55.8 1019.0 -9.9 -9.999 -99.9 -99.99 -9.99
2020/02/21 06:48 PST    4.04   4.04    0  101    1  51.4  55.8 1019.1 -9.9 -9.999 -99.9 -99.99 -9.99
2020/02/21 06:54 PST    4.14   4.13    0  122    1  51.3  55.8 1019.1 -9.9 -9.999 -99.9 -99.99 -9.99
2020/02/21 07:00 PST    4.25   4.25    0  116    0  51.3  55.8 1019.2 -9.9 -9.999 -99.9 -99.99 -9.99
2020/02/21 07:06 PST    4.35   4.37    0  128    1  51.8  55.8 1019.2 -9.9 -9.999 -99.9 -99.99 -9.99
2020/02/21 07:12 PST    4.46   4.47    1   94    1  52.5  55.8 1019.1 -9.9 -9.999 -99.9 -99.99 -9.99
2020/02/21 07:18 PST    4.56   4.58    0   95    1  53.2  55.8 1019.1 -9.9 -9.999 -99.9 -99.99 -9.99
2020/02/21 07:24 PST    4.67   4.71    1  119    1  52.7  55.8 1019.2 -9.9 -9.999 -99.9 -99.99 -9.99
2020/02/21 07:30 PST    4.77   4.83    1  117    1  53.2  55.8 1019.3 -9.9 -9.999 -99.9 -99.99 -9.99
2020/02/21 07:36 PST    4.88   4.94    0   14    1  53.2  55.8 1019.3 -9.9 -9.999 -99.9 -99.99 -9.99
2020/02/21 07:42 PST    4.98   5.07    0   36    1  54.0  55.8 1019.4 -9.9 -9.999 -99.9 -99.99 -9.99
2020/02/21 07:48 PST    5.09   5.20    2  319    3  53.6  55.8 1019.4 -9.9 -9.999 -99.9 -99.99 -9.99
2020/02/21 07:54 PST    5.19   5.32    3  350    4  53.2  55.8 1019.4 -9.9 -9.999 -99.9 -99.99 -9.99
2020/02/21 08:00 PST    5.29   5.41    2  287    3  53.6  55.8 1019.5 -9.9 -9.999 -99.9 -99.99 -9.99
2020/02/21 08:06 PST    5.39   5.50    1  345    3  54.1  55.8 1019.7 -9.9 -9.999 -99.9 -99.99 -9.99
2020/02/21 08:12 PST    5.48   5.61    2  351    3  54.0  55.8 1019.7 -9.9 -9.999 -99.9 -99.99 -9.99
2020/02/21 08:18 PST    5.58   5.72    1   24    3  54.7  55.8 1019.7 -9.9 -9.999 -99.9 -99.99 -9.99
2020/02/21 08:24 PST    5.67   5.81    2  348    3  54.5  55.8 1019.7 -9.9 -9.999 -99.9 -99.99 -9.99
2020/02/21 08:30 PST    5.76   5.91    3  345    4  54.7  55.9 1019.7 -9.9 -9.999 -99.9 -99.99 -9.99
2020/02/21 08:36 PST    5.85   6.00    1  310    3  55.4  55.9 1019.7 -9.9 -9.999 -99.9 -99.99 -9.99
2020/02/21 08:42 PST    5.93   6.09    1  319    3  55.8  55.9 1019.8 -9.9 -9.999 -99.9 -99.99 -9.99
2020/02/21 08:48 PST    6.01   6.16    2  332    4  55.6  55.9 1019.7 -9.9 -9.999 -99.9 -99.99 -9.99
2020/02/21 08:54 PST    6.09   6.23    1  347    4  56.1  55.9 1019.6 -9.9 -9.999 -99.9 -99.99 -9.99
2020/02/21 09:00 PST    6.16   6.33    2  347    4  56.1  55.9 1019.5 -9.9 -9.999 -99.9 -99.99 -9.99
2020/02/21 09:06 PST    6.23   6.41    4  359    5  56.5  55.9 1019.4 -9.9 -9.999 -99.9 -99.99 -9.99
2020/02/21 09:12 PST    6.29   6.49    3  343    6  57.0  55.9 1019.4 -9.9 -9.999 -99.9 -99.99 -9.99
2020/02/21 09:18 PST    6.35   6.57    3  335    5  57.0  55.9 1019.3 -9.9 -9.999 -99.9 -99.99 -9.99
2020/02/21 09:24 PST    6.40   6.63    3  317    4  57.2  55.9 1019.3 -9.9 -9.999 -99.9 -99.99 -9.99
2020/02/21 09:30 PST    6.45   6.68    3  332    4  57.4  55.9 1019.2 -9.9 -9.999 -99.9 -99.99 -9.99
2020/02/21 09:36 PST    6.49   6.74    3  327    5  57.6  55.9 1019.2 -9.9 -9.999 -99.9 -99.99 -9.99
2020/02/21 09:42 PST    6.53   6.82    2  313    4  57.6  56.1 1019.3 -9.9 -9.999 -99.9 -99.99 -9.99
2020/02/21 09:48 PST    6.56   6.87    4  275    5  57.4  55.9 1019.3 -9.9 -9.999 -99.9 -99.99 -9.99
2020/02/21 09:54 PST    6.58   6.89    4  286    6  57.4  55.9 1019.2 -9.9 -9.999 -99.9 -99.99 -9.99
2020/02/21 10:00 PST    6.60   6.93    2  335    6  58.5  55.9 1019.2 -9.9 -9.999 -99.9 -99.99 -9.99
2020/02/21 10:06 PST    6.61   6.96    2  331    4  58.3  55.9 1019.3 -9.9 -9.999 -99.9 -99.99 -9.99
2020/02/21 10:12 PST    6.61   6.96    3  275    5  58.3  55.9 1019.3 -9.9 -9.999 -99.9 -99.99 -9.99
2020/02/21 10:18 PST    6.61   6.96    3  340    6  58.5  55.9 1019.2 -9.9 -9.999 -99.9 -99.99 -9.99
2020/02/21 10:24 PST    6.60   6.98    3  338    5  58.8  55.9 1019.0 -9.9 -9.999 -99.9 -99.99 -9.99
2020/02/21 10:30 PST    6.58   6.97    2  329    5  59.2  55.9 1019.1 -9.9 -9.999 -99.9 -99.99 -9.99
2020/02/21 10:36 PST    6.55   6.94    4  333    6  59.5  55.8 1019.0 -9.9 -9.999 -99.9 -99.99 -9.99
2020/02/21 10:42 PST    6.52   6.89    2  317    6  59.9  55.8 1019.0 -9.9 -9.999 -99.9 -99.99 -9.99
2020/02/21 10:48 PST    6.48   6.83    4  334    6  59.7  55.9 1018.9 -9.9 -9.999 -99.9 -99.99 -9.99
2020/02/21 10:54 PST    6.43   6.77    4  337    7  60.3  55.9 1018.9 -9.9 -9.999 -99.9 -99.99 -9.99
2020/02/21 11:00 PST    6.37   6.72    4  301    5  60.3  55.9 1018.8 -9.9 -9.999 -99.9 -99.99 -9.99
2020/02/21 11:06 PST    6.31   6.65    4  301    6  60.3  55.8 1018.7 -9.9 -9.999 -99.9 -99.99 -9.99
2020/02/21 11:12 PST    6.24   6.59    4  295    5  60.4  55.9 1018.7 -9.9 -9.999 -99.9 -99.99 -9.99
2020/02/21 11:18 PST    6.16   6.52    3  292    5  60.8  55.9 1018.7 -9.9 -9.999 -99.9 -99.99 -9.99
2020/02/21 11:24 PST    6.07   6.40    4  274    5  60.8  55.9 1018.6 -9.9 -9.999 -99.9 -99.99 -9.99
2020/02/21 11:30 PST    5.98   6.28    6  277    7  59.2  55.9 1018.6 -9.9 -9.999 -99.9 -99.99 -9.99
2020/02/21 11:36 PST    5.88   6.15    5  275    6  59.4  55.9 1018.4 -9.9 -9.999 -99.9 -99.99 -9.99
2020/02/21 11:42 PST    5.77   6.07    7  279    7  58.6  55.9 1018.3 -9.9 -9.999 -99.9 -99.99 -9.99
2020/02/21 11:48 PST    5.66   5.99    4  271    7  60.3  55.8 1018.3 -9.9 -9.999 -99.9 -99.99 -9.99
2020/02/21 11:54 PST    5.54   5.86    4  241    6  57.9  55.9 1018.3 -9.9 -9.999 -99.9 -99.99 -9.99
2020/02/21 12:00 PST    5.42   5.70    3  264    5  58.5  55.9 1018.1 -9.9 -9.999 -99.9 -99.99 -9.99
2020/02/21 12:06 PST    5.29   5.57    4  279    5  61.3  55.9 1018.0 -9.9 -9.999 -99.9 -99.99 -9.99
2020/02/21 12:12 PST    5.16   5.42    4  272    4  60.1  55.9 1017.9 -9.9 -9.999 -99.9 -99.99 -9.99
2020/02/21 12:18 PST    5.02   5.26    4  281    5  60.1  55.9 1017.8 -9.9 -9.999 -99.9 -99.99 -9.99
2020/02/21 12:24 PST    4.88   5.11    4  277    5  60.1  55.9 1017.7 -9.9 -9.999 -99.9 -99.99 -9.99
2020/02/21 12:30 PST    4.74   4.95    3  275    4  61.2  55.9 1017.6 -9.9 -9.999 -99.9 -99.99 -9.99
2020/02/21 12:36 PST    4.59   4.78    4  282    5  61.7  55.9 1017.6 -9.9 -9.999 -99.9 -99.99 -9.99
2020/02/21 12:42 PST    4.44   4.61    6  283    6  61.0  55.9 1017.5 -9.9 -9.999 -99.9 -99.99 -9.99
2020/02/21 12:48 PST    4.29   4.43    6  282    7  62.6  55.9 1017.4 -9.9 -9.999 -99.9 -99.99 -9.99
2020/02/21 12:54 PST    4.13   4.25    5  283    7  64.0  55.9 1017.3 -9.9 -9.999 -99.9 -99.99 -9.99
2020/02/21 13:00 PST    3.98   4.06    5  282    6  64.2  55.9 1017.2 -9.9 -9.999 -99.9 -99.99 -9.99
2020/02/21 13:06 PST    3.82   3.87    4  277    6  64.6  55.9 1017.1 -9.9 -9.999 -99.9 -99.99 -9.99
2020/02/21 13:12 PST    3.66   3.69    3  263    5  63.5  55.9 1017.0 -9.9 -9.999 -99.9 -99.99 -9.99
2020/02/21 13:18 PST    3.50   3.51    5  273    7  64.0  56.1 1016.8 -9.9 -9.999 -99.9 -99.99 -9.99
2020/02/21 13:24 PST    3.34   3.35    6  279    7  64.4  56.1 1016.6 -9.9 -9.999 -99.9 -99.99 -9.99
2020/02/21 13:30 PST    3.18   3.18    5  264    7  62.6  56.1 1016.6 -9.9 -9.999 -99.9 -99.99 -9.99
2020/02/21 13:36 PST    3.02   3.01    4  266    6  62.2  56.1 1016.4 -9.9 -9.999 -99.9 -99.99 -9.99
2020/02/21 13:42 PST    2.86   2.84    5  286    7  68.0  56.1 1016.1 -9.9 -9.999 -99.9 -99.99 -9.99
2020/02/21 13:48 PST    2.70   2.70    5  286    8  68.2  56.1 1015.9 -9.9 -9.999 -99.9 -99.99 -9.99
2020/02/21 13:54 PST    2.54   2.56    5  289    8  68.5  56.1 1015.8 -9.9 -9.999 -99.9 -99.99 -9.99
2020/02/21 14:00 PST    2.38   2.39    6  287    8  68.2  56.1 1015.7 -9.9 -9.999 -99.9 -99.99 -9.99
2020/02/21 14:06 PST    2.23   2.24    4  297    8  68.0  56.1 1015.7 -9.9 -9.999 -99.9 -99.99 -9.99
2020/02/21 14:12 PST    2.07   2.11    4  298    6  68.2  56.3 1015.6 -9.9 -9.999 -99.9 -99.99 -9.99
2020/02/21 14:18 PST    1.92   1.98    4  294    7  68.2  56.3 1015.5 -9.9 -9.999 -99.9 -99.99 -9.99
2020/02/21 14:24 PST    1.77   1.84    4  292    7  67.6  56.3 1015.5 -9.9 -9.999 -99.9 -99.99 -9.99
2020/02/21 14:30 PST    1.63   1.70    6  286    7  67.3  56.3 1015.5 -9.9 -9.999 -99.9 -99.99 -9.99
2020/02/21 14:36 PST    1.49   1.55    6  285    8  67.3  56.3 1015.4 -9.9 -9.999 -99.9 -99.99 -9.99
2020/02/21 14:42 PST    1.35   1.40    6  285    7  66.0  56.3 1015.4 -9.9 -9.999 -99.9 -99.99 -9.99
2020/02/21 14:48 PST    1.21   1.27    5  276    7  65.3  56.3 1015.3 -9.9 -9.999 -99.9 -99.99 -9.99
2020/02/21 14:54 PST    1.08   1.15    6  283    7  64.9  56.3 1015.3 -9.9 -9.999 -99.9 -99.99 -9.99
2020/02/21 15:00 PST    0.95   1.03    4  285    7  64.8  56.5 1015.2 -9.9 -9.999 -99.9 -99.99 -9.99
2020/02/21 15:06 PST    0.82   0.92    4  288    6  65.1  56.5 1015.2 -9.9 -9.999 -99.9 -99.99 -9.99
2020/02/21 15:12 PST    0.70   0.84    4  293    6  65.1  56.5 1015.1 -9.9 -9.999 -99.9 -99.99 -9.99
2020/02/21 15:18 PST    0.58   0.73    4  300    5  65.5  56.5 1015.0 -9.9 -9.999 -99.9 -99.99 -9.99
2020/02/21 15:24 PST    0.47   0.60    4  286    6  66.0  56.5 1015.0 -9.9 -9.999 -99.9 -99.99 -9.99
2020/02/21 15:30 PST    0.36   0.47    5  289    6  66.2  56.5 1015.0 -9.9 -9.999 -99.9 -99.99 -9.99
2020/02/21 15:36 PST    0.26   0.37    4  287    6  65.7  56.7 1014.9 -9.9 -9.999 -99.9 -99.99 -9.99
2020/02/21 15:42 PST    0.16   0.28    5  282    6  66.0  56.7 1014.8 -9.9 -9.999 -99.9 -99.99 -9.99
2020/02/21 15:48 PST    0.07   0.21    5  288    6  66.4  56.7 1014.7 -9.9 -9.999 -99.9 -99.99 -9.99
2020/02/21 15:54 PST   -0.01   0.13    4  281    6  65.7  56.8 1014.7 -9.9 -9.999 -99.9 -99.99 -9.99
2020/02/21 16:00 PST   -0.09   0.05    5  281    6  65.5  56.8 1014.6 -9.9 -9.999 -99.9 -99.99 -9.99
2020/02/21 16:06 PST   -0.17  -0.04    5  285    6  65.5  56.8 1014.6 -9.9 -9.999 -99.9 -99.99 -9.99
2020/02/21 16:12 PST   -0.23  -0.12    3  293    5  65.5  56.8 1014.6 -9.9 -9.999 -99.9 -99.99 -9.99
2020/02/21 16:18 PST   -0.30  -0.19    3  294    4  65.7  57.0 1014.5 -9.9 -9.999 -99.9 -99.99 -9.99
2020/02/21 16:24 PST   -0.35  -0.25    3  303    5  65.7  56.8 1014.5 -9.9 -9.999 -99.9 -99.99 -9.99
2020/02/21 16:30 PST   -0.40  -0.30    4  293    5  66.0  56.8 1014.4 -9.9 -9.999 -99.9 -99.99 -9.99
2020/02/21 16:36 PST   -0.44  -0.33    4  289    5  66.2  57.0 1014.5 -9.9 -9.999 -99.9 -99.99 -9.99
2020/02/21 16:42 PST   -0.48  -0.39    2  298    4  66.0  57.0 1014.4 -9.9 -9.999 -99.9 -99.99 -9.99
2020/02/21 16:48 PST   -0.50  -0.45    2  303    5  65.7  57.0 1014.4 -9.9 -9.999 -99.9 -99.99 -9.99
2020/02/21 16:54 PST   -0.52  -0.47    3  317    5  65.8  57.0 1014.4 -9.9 -9.999 -99.9 -99.99 -9.99
2020/02/21 17:00 PST   -0.54  -0.46    3  293    4  65.8  56.8 1014.4 -9.9 -9.999 -99.9 -99.99 -9.99
2020/02/21 17:06 PST   -0.54  -0.47    4  292    5  65.7  56.8 1014.4 -9.9 -9.999 -99.9 -99.99 -9.99
2020/02/21 17:12 PST   -0.54  -0.48    4  295    5  65.7  56.8 1014.4 -9.9 -9.999 -99.9 -99.99 -9.99
2020/02/21 17:18 PST   -0.54  -0.47    3  307    5  65.5  56.8 1014.5 -9.9 -9.999 -99.9 -99.99 -9.99
2020/02/21 17:24 PST   -0.52  -0.48    3  297    4  65.1  56.8 1014.5 -9.9 -9.999 -99.9 -99.99 -9.99
2020/02/21 17:30 PST   -0.50  -0.47    2  305    3  65.3  56.8 1014.5 -9.9 -9.999 -99.9 -99.99 -9.99
2020/02/21 17:36 PST   -0.48  -0.46    3  301    4  65.7  57.0 1014.6 -9.9 -9.999 -99.9 -99.99 -9.99
2020/02/21 17:42 PST   -0.44  -0.42    2  322    4  65.3  57.0 1014.6 -9.9 -9.999 -99.9 -99.99 -9.99
2020/02/21 17:48 PST   -0.40  -0.36    3  315    4  65.3  57.0 1014.7 -9.9 -9.999 -99.9 -99.99 -9.99
2020/02/21 17:54 PST   -0.36  -0.28    2  303    4  64.8  57.0 1014.8 -9.9 -9.999 -99.9 -99.99 -9.99
2020/02/21 18:00 PST   -0.30  -0.22    2  307    2  63.5  57.0 1014.8 -9.9 -9.999 -99.9 -99.99 -9.99
2020/02/21 18:06 PST   -0.24  -0.17    2  312    2  63.3  57.0 1014.9 -9.9 -9.999 -99.9 -99.99 -9.99
2020/02/21 18:12 PST   -0.18  -0.12    3  322    4  64.0  56.8 1014.9 -9.9 -9.999 -99.9 -99.99 -9.99
2020/02/21 18:18 PST   -0.11  -0.08    3  333    5  64.4  56.8 1014.9 -9.9 -9.999 -99.9 -99.99 -9.99
2020/02/21 18:24 PST   -0.03  -0.00    1   55    3  64.6  56.8 1015.0 -9.9 -9.999 -99.9 -99.99 -9.99
2020/02/21 18:30 PST    0.05   0.12    1  200    4  62.8  56.7 1015.1 -9.9 -9.999 -99.9 -99.99 -9.99
2020/02/21 18:36 PST    0.13   0.24    1  126    1  62.8  56.7 1015.1 -9.9 -9.999 -99.9 -99.99 -9.99
2020/02/21 18:42 PST    0.23   0.32    0  244    1  62.8  56.7 1015.1 -9.9 -9.999 -99.9 -99.99 -9.99
2020/02/21 18:48 PST    0.32   0.42    2  340    2  64.0  56.7 1015.0 -9.9 -9.999 -99.9 -99.99 -9.99
2020/02/21 18:54 PST    0.42   0.51    2    8    3  64.4  56.7 1014.9 -9.9 -9.999 -99.9 -99.99 -9.99
2020/02/21 19:00 PST    0.52   0.64    3   14    4  64.2  56.8 1014.9 -9.9 -9.999 -99.9 -99.99 -9.99
2020/02/21 19:06 PST    0.63   0.77    3  354    4  64.2  56.8 1014.9 -9.9 -9.999 -99.9 -99.99 -9.99
2020/02/21 19:12 PST    0.74   0.91    4  346    5  64.0  56.8 1014.9 -9.9 -9.999 -99.9 -99.99 -9.99
2020/02/21 19:18 PST    0.86   1.06    4  335    5  63.9  56.8 1014.9 -9.9 -9.999 -99.9 -99.99 -9.99
2020/02/21 19:24 PST    0.98   1.21    4  323    6  63.9  56.8 1015.0 -9.9 -9.999 -99.9 -99.99 -9.99
2020/02/21 19:30 PST    1.10   1.34    4  295    5  62.8  56.8 1015.0 -9.9 -9.999 -99.9 -99.99 -9.99
2020/02/21 19:36 PST    1.23   1.46    4  297    5  61.7  56.7 1015.0 -9.9 -9.999 -99.9 -99.99 -9.99
2020/02/21 19:42 PST    1.35   1.59    3  334    6  61.2  56.7 1015.1 -9.9 -9.999 -99.9 -99.99 -9.99
2020/02/21 19:48 PST    1.48   1.73    3  331    8  60.8  56.7 1014.9 -9.9 -9.999 -99.9 -99.99 -9.99
2020/02/21 19:54 PST    1.62   1.90    4  325    6  60.6  56.3 1014.8 -9.9 -9.999 -99.9 -99.99 -9.99
2020/02/21 20:00 PST    1.75   2.06    4  317    8  61.0  56.3 1014.7 -9.9 -9.999 -99.9 -99.99 -9.99
2020/02/21 20:06 PST    1.89   2.21    4  319    6  61.2  56.3 1014.7 -9.9 -9.999 -99.9 -99.99 -9.99
2020/02/21 20:12 PST    2.03   2.32    3  315    5  61.2  56.1 1014.7 -9.9 -9.999 -99.9 -99.99 -9.99
2020/02/21 20:18 PST    2.17   2.44    3  322    5  61.3  56.1 1014.6 -9.9 -9.999 -99.9 -99.99 -9.99
2020/02/21 20:24 PST    2.31   2.58    3  300    8  61.3  55.9 1014.6 -9.9 -9.999 -99.9 -99.99 -9.99
2020/02/21 20:30 PST    2.45   2.77    3  308    5  61.2  55.9 1014.7 -9.9 -9.999 -99.9 -99.99 -9.99
2020/02/21 20:36 PST    2.60   2.91    3  290    5  61.5  55.9 1014.7 -9.9 -9.999 -99.9 -99.99 -9.99
2020/02/21 20:42 PST    2.74   3.02    4  286    6  61.3  55.9 1014.8 -9.9 -9.999 -99.9 -99.99 -9.99
2020/02/21 20:48 PST    2.89   3.13    4  286    5  60.4  55.9 1014.8 -9.9 -9.999 -99.9 -99.99 -9.99
2020/02/21 20:54 PST    3.03   3.26    6  285    7  59.0  56.1 1014.7 -9.9 -9.999 -99.9 -99.99 -9.99
2020/02/21 21:00 PST    3.18   3.40    6  291    7  59.2  56.3 1014.6 -9.9 -9.999 -99.9 -99.99 -9.99
2020/02/21 21:06 PST    3.32   3.55    6  289    8  59.2  56.3 1014.5 -9.9 -9.999 -99.9 -99.99 -9.99
2020/02/21 21:12 PST    3.47   3.70    6  295    8  59.4  56.3 1014.4 -9.9 -9.999 -99.9 -99.99 -9.99
2020/02/21 21:18 PST    3.61   3.81    5  298    8  59.7  56.5 1014.2 -9.9 -9.999 -99.9 -99.99 -9.99
2020/02/21 21:24 PST    3.75   3.94    4  301    7  59.5  56.5 1014.2 -9.9 -9.999 -99.9 -99.99 -9.99
2020/02/21 21:30 PST    3.89   4.06    3  311    5  60.3  56.7 1014.3 -9.9 -9.999 -99.9 -99.99 -9.99
2020/02/21 21:36 PST    4.03   4.19    4  323    7  62.1  56.7 1014.3 -9.9 -9.999 -99.9 -99.99 -9.99
2020/02/21 21:42 PST    4.16   4.33    5  314    7  62.1  56.7 1014.5 -9.9 -9.999 -99.9 -99.99 -9.99
2020/02/21 21:48 PST    4.29   4.45    3  305    6  60.6  56.7 1014.6 -9.9 -9.999 -99.9 -99.99 -9.99
2020/02/21 21:54 PST    4.42   4.56    3  317    6  60.4  56.7 1014.6 -9.9 -9.999 -99.9 -99.99 -9.99
2020/02/21 22:00 PST    4.54   4.65    4  355    6  61.0  56.7 1014.7 -9.9 -9.999 -99.9 -99.99 -9.99
2020/02/21 22:06 PST    4.66   4.75    3  335    7  60.8  56.7 1014.8 -9.9 -9.999 -99.9 -99.99 -9.99
2020/02/21 22:12 PST    4.78   4.83    1   59    3  60.6  56.7 1015.0 -9.9 -9.999 -99.9 -99.99 -9.99
2020/02/21 22:18 PST    4.89   4.88    1  104    2  60.3  56.7 1015.1 -9.9 -9.999 -99.9 -99.99 -9.99
2020/02/21 22:24 PST    4.99   4.97    0  103    1  59.9  56.7 1015.1 -9.9 -9.999 -99.9 -99.99 -9.99
2020/02/21 22:30 PST    5.09   5.06    1  307    2  60.1  56.7 1015.1 -9.9 -9.999 -99.9 -99.99 -9.99
2020/02/21 22:36 PST    5.18   5.19    2  287    3  59.4  56.7 1015.1 -9.9 -9.999 -99.9 -99.99 -9.99
2020/02/21 22:42 PST    5.27   5.27    4  278    4  58.5  56.7 1015.1 -9.9 -9.999 -99.9 -99.99 -9.99
2020/02/21 22:48 PST    5.35   5.36    4  278    5  58.3  56.7 1015.0 -9.9 -9.999 -99.9 -99.99 -9.99
2020/02/21 22:54 PST    5.43   5.43    3  268    4  58.3  56.7 1015.0 -9.9 -9.999 -99.9 -99.99 -9.99
2020/02/21 23:00 PST    5.49   5.49    1  280    3  57.9  56.7 1015.1 -9.9 -9.999 -99.9 -99.99 -9.99
2020/02/21 23:06 PST    5.55   5.55    3  278    3  58.5  56.7 1015.0 -9.9 -9.999 -99.9 -99.99 -9.99
2020/02/21 23:12 PST    5.60   5.63    2  300    4  59.0  56.7 1014.9 -9.9 -9.999 -99.9 -99.99 -9.99
2020/02/21 23:18 PST    5.65   5.67    3  301    4  59.5  56.7 1014.8 -9.9 -9.999 -99.9 -99.99 -9.99
2020/02/21 23:24 PST    5.68   5.68    3  303    5  59.5  56.7 1014.7 -9.9 -9.999 -99.9 -99.99 -9.99
2020/02/21 23:30 PST    5.71   5.71    4  284    5  58.8  56.7 1014.7 -9.9 -9.999 -99.9 -99.99 -9.99
2020/02/21 23:36 PST    5.74   5.73    3  359    5  58.3  56.7 1014.7 -9.9 -9.999 -99.9 -99.99 -9.99
2020/02/21 23:42 PST    5.75   5.77    4  329    5  57.9  56.7 1014.7 -9.9 -9.999 -99.9 -99.99 -9.99
2020/02/21 23:48 PST    5.76   5.79    4  326    5  58.1  56.7 1014.7 -9.9 -9.999 -99.9 -99.99 -9.99
2020/02/21 23:54 PST    5.75   5.78    3  316    4  57.9  56.7 1014.6 -9.9 -9.999 -99.9 -99.99 -9.99
2020/02/22 00:00 PST    5.75   5.78    2  317    3  57.7  56.5 1014.5 -9.9 -9.999 -99.9 -99.99 -9.99
2020/02/22 00:06 PST    5.73   5.79    2  311    4  57.7  56.5 1014.5 -9.9 -9.999 -99.9 -99.99 -9.99
2020/02/22 00:12 PST    5.71   5.79    4  296    4  57.9  56.5 1014.4 -9.9 -9.999 -99.9 -99.99 -9.99
2020/02/22 00:18 PST    5.68   5.76    3  320    5  57.7  56.5 1014.3 -9.9 -9.999 -99.9 -99.99 -9.99
2020/02/22 00:24 PST    5.64   5.73    4  295    5  57.4  56.5 1014.3 -9.9 -9.999 -99.9 -99.99 -9.99
2020/02/22 00:30 PST    5.60   5.69    4  285    5  57.2  56.5 1014.3 -9.9 -9.999 -99.9 -99.99 -9.99
2020/02/22 00:36 PST    5.55   5.67    1  297    4  57.2  56.5 1014.4 -9.9 -9.999 -99.9 -99.99 -9.99
2020/02/22 00:42 PST    5.50   5.67    1   96    2  57.2  56.5 1014.5 -9.9 -9.999 -99.9 -99.99 -9.99
2020/02/22 00:48 PST    5.44   5.61    0   10    2  57.0  56.5 1014.4 -9.9 -9.999 -99.9 -99.99 -9.99
2020/02/22 00:54 PST    5.37   5.51    0  283    0  57.2  56.5 1014.4 -9.9 -9.999 -99.9 -99.99 -9.99
2020/02/22 01:00 PST    5.30   5.45    0  213    0  57.0  56.5 1014.4 -9.9 -9.999 -99.9 -99.99 -9.99
2020/02/22 01:06 PST    5.23   5.42    2  341    3  57.2  56.5 1014.2 -9.9 -9.999 -99.9 -99.99 -9.99
2020/02/22 01:12 PST    5.15   5.36    3  325    4  57.4  56.5 1014.1 -9.9 -9.999 -99.9 -99.99 -9.99
2020/02/22 01:18 PST    5.07   5.28    0  328    3  57.4  56.5 1014.1 -9.9 -9.999 -99.9 -99.99 -9.99
2020/02/22 01:24 PST    4.98   5.19    2  116    2  57.0  56.5 1014.2 -9.9 -9.999 -99.9 -99.99 -9.99
2020/02/22 01:30 PST    4.89   5.07    0   83    2  56.8  56.5 1014.2 -9.9 -9.999 -99.9 -99.99 -9.99
2020/02/22 01:36 PST    4.80   4.95    0   51    1  56.8  56.5 1014.3 -9.9 -9.999 -99.9 -99.99 -9.99
2020/02/22 01:42 PST    4.71   4.86    3   96    3  56.7  56.5 1014.5 -9.9 -9.999 -99.9 -99.99 -9.99
2020/02/22 01:48 PST    4.61   4.79    4  108    5  56.5  56.5 1014.6 -9.9 -9.999 -99.9 -99.99 -9.99
2020/02/22 01:54 PST    4.52   4.67    4   90    5  56.1  56.5 1014.6 -9.9 -9.999 -99.9 -99.99 -9.99
2020/02/22 02:00 PST    4.42   4.55    5  108    6  56.7  56.5 1014.7 -9.9 -9.999 -99.9 -99.99 -9.99
2020/02/22 02:06 PST    4.32   4.43    5  102    7  56.7  56.5 1014.7 -9.9 -9.999 -99.9 -99.99 -9.99
2020/02/22 02:12 PST    4.22   4.34    3   87    6  56.8  56.5 1014.7 -9.9 -9.999 -99.9 -99.99 -9.99
2020/02/22 02:18 PST    4.12   4.21    4  100    6  56.7  56.5 1014.6 -9.9 -9.999 -99.9 -99.99 -9.99
2020/02/22 02:24 PST    4.02   4.11    2   90    5  56.8  56.5 1014.5 -9.9 -9.999 -99.9 -99.99 -9.99
2020/02/22 02:30 PST    3.92   3.99    2   81    3  56.8  56.5 1014.5 -9.9 -9.999 -99.9 -99.99 -9.99
2020/02/22 02:36 PST    3.82   3.88    2   61    3  56.8  56.5 1014.4 -9.9 -9.999 -99.9 -99.99 -9.99
2020/02/22 02:42 PST    3.72   3.78    1   87    2  56.7  56.5 1014.4 -9.9 -9.999 -99.9 -99.99 -9.99
2020/02/22 02:48 PST    3.62   3.68    1  349    2  56.5  56.5 1014.3 -9.9 -9.999 -99.9 -99.99 -9.99
2020/02/22 02:54 PST    3.52   3.60    1    1    2  56.5  56.5 1014.3 -9.9 -9.999 -99.9 -99.99 -9.99
2020/02/22 03:00 PST    3.43   3.53    1  333    2  56.5  56.5 1014.2 -9.9 -9.999 -99.9 -99.99 -9.99
2020/02/22 03:06 PST    3.34   3.45    1  336    2  56.5  56.5 1014.1 -9.9 -9.999 -99.9 -99.99 -9.99
2020/02/22 03:12 PST    3.24   3.38    1  338    2  56.7  56.5 1014.0 -9.9 -9.999 -99.9 -99.99 -9.99
2020/02/22 03:18 PST    3.16   3.28    2  328    2  57.0  56.5 1014.0 -9.9 -9.999 -99.9 -99.99 -9.99
2020/02/22 03:24 PST    3.07   3.16    2  305    3  57.0  56.5 1014.0 -9.9 -9.999 -99.9 -99.99 -9.99
2020/02/22 03:30 PST    2.99   3.08    2  289    3  56.7  56.5 1013.9 -9.9 -9.999 -99.9 -99.99 -9.99
2020/02/22 03:36 PST    2.91   3.01    3  292    3  56.7  56.5 1013.9 -9.9 -9.999 -99.9 -99.99 -9.99
2020/02/22 03:42 PST    2.84   2.93    2  314    4  56.5  56.5 1013.9 -9.9 -9.999 -99.9 -99.99 -9.99
2020/02/22 03:48 PST    2.76   2.85    3  320    4  56.5  56.5 1013.9 -9.9 -9.999 -99.9 -99.99 -9.99
2020/02/22 03:54 PST    2.70   2.78    4  292    6  56.3  56.5 1014.0 -9.9 -9.999 -99.9 -99.99 -9.99
2020/02/22 04:00 PST    2.63   2.69    5  298    8  55.4  56.5 1014.0 -9.9 -9.999 -99.9 -99.99 -9.99
2020/02/22 04:06 PST    2.58   2.64    4  300    7  55.2  56.5 1013.9 -9.9 -9.999 -99.9 -99.99 -9.99
2020/02/22 04:12 PST    2.52   2.61    3  315    7  55.4  56.5 1013.9 -9.9 -9.999 -99.9 -99.99 -9.99
2020/02/22 04:18 PST    2.48   2.58    4  310    6  55.2  56.5 1013.9 -9.9 -9.999 -99.9 -99.99 -9.99
2020/02/22 04:24 PST    2.43   2.54    4  297    6  54.9  56.5 1014.0 -9.9 -9.999 -99.9 -99.99 -9.99
2020/02/22 04:30 PST    2.40   2.52    4  293    5  54.9  56.5 1014.0 -9.9 -9.999 -99.9 -99.99 -9.99
2020/02/22 04:36 PST    2.36   2.48    3  306    4  54.7  56.5 1014.1 -9.9 -9.999 -99.9 -99.99 -9.99
2020/02/22 04:42 PST    2.34   2.46    4  336    6  54.9  56.5 1014.1 -9.9 -9.999 -99.9 -99.99 -9.99
2020/02/22 04:48 PST    2.32   2.44    3  314    6  54.9  56.5 1014.1 -9.9 -9.999 -99.9 -99.99 -9.99
2020/02/22 04:54 PST    2.30   2.45    2  319    5  54.9  56.5 1014.2 -9.9 -9.999 -99.9 -99.99 -9.99
2020/02/22 05:00 PST    2.30   2.47    3  309    4  54.9  56.5 1014.2 -9.9 -9.999 -99.9 -99.99 -9.99
2020/02/22 05:06 PST    2.30   2.49    4  322    5  54.9  56.5 1014.2 -9.9 -9.999 -99.9 -99.99 -9.99
2020/02/22 05:12 PST    2.30   2.48    4  296    5  54.7  56.5 1014.2 -9.9 -9.999 -99.9 -99.99 -9.99
2020/02/22 05:18 PST    2.31   2.49    4  302    5  54.5  56.5 1014.2 -9.9 -9.999 -99.9 -99.99 -9.99
2020/02/22 05:24 PST    2.33   2.50    4  315    6  54.3  56.5 1014.2 -9.9 -9.999 -99.9 -99.99 -9.99
2020/02/22 05:30 PST    2.35   2.53    4  322    5  54.1  56.5 1014.2 -9.9 -9.999 -99.9 -99.99 -9.99
2020/02/22 05:36 PST    2.38   2.58    4  320    5  54.3  56.5 1014.2 -9.9 -9.999 -99.9 -99.99 -9.99
2020/02/22 05:42 PST    2.42   2.65    4  328    5  54.3  56.3 1014.1 -9.9 -9.999 -99.9 -99.99 -9.99
2020/02/22 05:48 PST    2.46   2.68    4  332    5  54.7  56.3 1014.1 -9.9 -9.999 -99.9 -99.99 -9.99
2020/02/22 05:54 PST    2.51   2.70    4  330    5  55.0  56.3 1014.1 -9.9 -9.999 -99.9 -99.99 -9.99
2020/02/22 06:00 PST    2.56   2.75    2  351    4  55.2  56.1 1014.2 -9.9 -9.999 -99.9 -99.99 -9.99
2020/02/22 06:06 PST    2.62   2.84    2  335    5  55.0  56.1 1014.3 -9.9 -9.999 -99.9 -99.99 -9.99
2020/02/22 06:12 PST    2.68   2.92    2  318    3  54.9  55.9 1014.4 -9.9 -9.999 -99.9 -99.99 -9.99
2020/02/22 06:18 PST    2.75   2.99    2  292    3  54.9  55.9 1014.4 -9.9 -9.999 -99.9 -99.99 -9.99
2020/02/22 06:24 PST    2.82   3.08    3  292    4  54.7  55.9 1014.4 -9.9 -9.999 -99.9 -99.99 -9.99
2020/02/22 06:30 PST    2.90   3.18    1  304    4  54.7  55.9 1014.5 -9.9 -9.999 -99.9 -99.99 -9.99
2020/02/22 06:36 PST    2.98   3.25    2  291    2  54.7  55.9 1014.5 -9.9 -9.999 -99.9 -99.99 -9.99
2020/02/22 06:42 PST    3.07   3.32    0  288    2  54.7  55.9 1014.6 -9.9 -9.999 -99.9 -99.99 -9.99
2020/02/22 06:48 PST    3.16   3.43    2   95    2  54.5  55.9 1014.7 -9.9 -9.999 -99.9 -99.99 -9.99
2020/02/22 06:54 PST    3.25   3.54    1  106    2  54.3  55.9 1014.8 -9.9 -9.999 -99.9 -99.99 -9.99
2020/02/22 07:00 PST    3.35   3.63    1  117    2  54.0  55.9 1014.9 -9.9 -9.999 -99.9 -99.99 -9.99
2020/02/22 07:06 PST    3.45   3.74    0  106    2  54.0  55.9 1015.0 -9.9 -9.999 -99.9 -99.99 -9.99
2020/02/22 07:12 PST    3.55   3.83    1  241    3  54.3  55.9 1015.1 -9.9 -9.999 -99.9 -99.99 -9.99
2020/02/22 07:18 PST    3.65   3.91    1  217    2  54.5  55.8 1015.2 -9.9 -9.999 -99.9 -99.99 -9.99
2020/02/22 07:24 PST    3.76   4.01    0  261    1  54.3  55.9 1015.4 -9.9 -9.999 -99.9 -99.99 -9.99
2020/02/22 07:30 PST    3.86   4.12    4  200    4  53.8  55.9 1015.5 -9.9 -9.999 -99.9 -99.99 -9.99
2020/02/22 07:36 PST    3.97   4.25    5  223    5  53.2  55.9 1015.5 -9.9 -9.999 -99.9 -99.99 -9.99
2020/02/22 07:42 PST    4.08   4.37    4  217    5  53.4  55.9 1015.7 -9.9 -9.999 -99.9 -99.99 -9.99
2020/02/22 07:48 PST    4.19   4.48    5  223    6  53.2  55.9 1015.8 -9.9 -9.999 -99.9 -99.99 -9.99
2020/02/22 07:54 PST    4.30   4.58    5  229    6  52.9  55.9 1016.0 -9.9 -9.999 -99.9 -99.99 -9.99
2020/02/22 08:00 PST    4.41   4.70    4  239    6  52.7  55.9 1016.1 -9.9 -9.999 -99.9 -99.99 -9.99
2020/02/22 08:06 PST    4.52   4.82    4  242    5  53.4  55.9 1016.1 -9.9 -9.999 -99.9 -99.99 -9.99
2020/02/22 08:12 PST    4.63   4.93    4  236    5  53.6  55.9 1016.2 -9.9 -9.999 -99.9 -99.99 -9.99
2020/02/22 08:18 PST    4.73   5.06    4  233    5  53.6  55.9 1016.1 -9.9 -9.999 -99.9 -99.99 -9.99
2020/02/22 08:24 PST    4.84   5.18    5  241    6  53.8  55.9 1016.3 -9.9 -9.999 -99.9 -99.99 -9.99
2020/02/22 08:30 PST    4.95   5.30    5  242    6  53.4  55.9 1016.4 -9.9 -9.999 -99.9 -99.99 -9.99
2020/02/22 08:36 PST    5.05   5.42    5  242    6  53.6  55.8 1016.5 -9.9 -9.999 -99.9 -99.99 -9.99
2020/02/22 08:42 PST    5.16   5.53    4  274    6  54.0  55.8 1016.7 -9.9 -9.999 -99.9 -99.99 -9.99
2020/02/22 08:48 PST    5.26   5.62    5  271    6  53.8  55.8 1016.8 -9.9 -9.999 -99.9 -99.99 -9.99
2020/02/22 08:54 PST    5.36   5.74    4  278    6  54.0  55.8 1016.9 -9.9 -9.999 -99.9 -99.99 -9.99
2020/02/22 09:00 PST    5.46   5.84    5  279    7  54.1  55.8 1017.0 -9.9 -9.999 -99.9 -99.99 -9.99
2020/02/22 09:06 PST    5.55   5.92    5  262    8  54.1  55.8 1017.2 -9.9 -9.999 -99.9 -99.99 -9.99
2020/02/22 09:12 PST    5.64   5.98    4  270    7  54.5  55.8 1017.1 -9.9 -9.999 -99.9 -99.99 -9.99
2020/02/22 09:18 PST    5.73   6.08    4  278    6  54.3  55.9 1017.1 -9.9 -9.999 -99.9 -99.99 -9.99
2020/02/22 09:24 PST    5.82   6.19    4  271    6  54.5  55.9 1017.2 -9.9 -9.999 -99.9 -99.99 -9.99
2020/02/22 09:30 PST    5.90   6.27    5  257    7  54.5  55.9 1017.3 -9.9 -9.999 -99.9 -99.99 -9.99
2020/02/22 09:36 PST    5.98   6.32    6  272    9  54.5  56.1 1017.3 -9.9 -9.999 -99.9 -99.99 -9.99
2020/02/22 09:42 PST    6.05   6.38    5  257    9  54.7  56.1 1017.4 -9.9 -9.999 -99.9 -99.99 -9.99
2020/02/22 09:48 PST    6.12   6.49    5  267    9  54.9  56.1 1017.4 -9.9 -9.999 -99.9 -99.99 -9.99
2020/02/22 09:54 PST    6.19   6.57    6  265   10  54.9  56.1 1017.3 -9.9 -9.999 -99.9 -99.99 -9.99
2020/02/22 10:00 PST    6.25   6.65    6  262    8  54.9  56.1 1017.3 -9.9 -9.999 -99.9 -99.99 -9.99
2020/02/22 10:06 PST    6.30   6.74    4  264    8  55.0  56.3 1017.3 -9.9 -9.999 -99.9 -99.99 -9.99
2020/02/22 10:12 PST    6.35   6.81    5  272    8  55.2  56.3 1017.4 -9.9 -9.999 -99.9 -99.99 -9.99
2020/02/22 10:18 PST    6.39   6.87    5  271    8  55.6  56.3 1017.6 -9.9 -9.999 -99.9 -99.99 -9.99
2020/02/22 10:24 PST    6.43   6.91    6  266    9  55.6  56.3 1017.7 -9.9 -9.999 -99.9 -99.99 -9.99
2020/02/22 10:30 PST    6.46   6.96    5  272   10  55.8  56.3 1017.7 -9.9 -9.999 -99.9 -99.99 -9.99
2020/02/22 10:36 PST    6.49   6.98    6  268    9  55.4  56.3 1017.7 -9.9 -9.999 -99.9 -99.99 -9.99
2020/02/22 10:42 PST    6.51   6.99    6  273    9  55.4  56.3 1017.8 -9.9 -9.999 -99.9 -99.99 -9.99
2020/02/22 10:48 PST    6.52   7.01    7  273    9  55.2  56.3 1017.9 -9.9 -9.999 -99.9 -99.99 -9.99
2020/02/22 10:54 PST    6.52   7.02    8  272   11  55.0  56.3 1017.8 -9.9 -9.999 -99.9 -99.99 -9.99
2020/02/22 11:00 PST    6.52   7.00    8  268   11  54.9  56.1 1017.8 -9.9 -9.999 -99.9 -99.99 -9.99
2020/02/22 11:06 PST    6.51   6.95    7  266   11  55.0  56.1 1017.9 -9.9 -9.999 -99.9 -99.99 -9.99
2020/02/22 11:12 PST    6.49   6.91    7  262   11  55.0  56.1 1018.0 -9.9 -9.999 -99.9 -99.99 -9.99
2020/02/22 11:18 PST    6.46   6.88    6  259    9  55.0  56.1 1018.1 -9.9 -9.999 -99.9 -99.99 -9.99
2020/02/22 11:24 PST    6.43   6.86    6  262    9  55.0  56.1 1018.0 -9.9 -9.999 -99.9 -99.99 -9.99
2020/02/22 11:30 PST    6.39   6.83    7  262   10  55.0  56.1 1018.0 -9.9 -9.999 -99.9 -99.99 -9.99
2020/02/22 11:36 PST    6.34   6.77    7  263   11  55.0  56.1 1018.0 -9.9 -9.999 -99.9 -99.99 -9.99
2020/02/22 11:42 PST    6.28   6.69    7  246   10  55.0  56.1 1017.9 -9.9 -9.999 -99.9 -99.99 -9.99
2020/02/22 11:48 PST    6.22   6.62    7  254   11  55.0  56.1 1017.9 -9.9 -9.999 -99.9 -99.99 -9.99
2020/02/22 11:54 PST    6.15   6.56    7  265   11  55.2  56.1 1017.8 -9.9 -9.999 -99.9 -99.99 -9.99
2020/02/22 12:00 PST    6.07   6.46    7  257   11  55.2  56.1 1017.8 -9.9 -9.999 -99.9 -99.99 -9.99
2020/02/22 12:06 PST    5.98   6.38    7  259   11  55.2  56.1 1017.8 -9.9 -9.999 -99.9 -99.99 -9.99
2020/02/22 12:12 PST    5.89   6.31    7  260   12  55.0  56.1 1017.8 -9.9 -9.999 -99.9 -99.99 -9.99
2020/02/22 12:18 PST    5.79   6.17    7  259   12  55.0  56.1 1017.8 -9.9 -9.999 -99.9 -99.99 -9.99
2020/02/22 12:24 PST    5.69   6.04    8  257   12  55.0  56.1 1017.7 -9.9 -9.999 -99.9 -99.99 -9.99
2020/02/22 12:30 PST    5.57   5.92    8  265   12  55.0  56.1 1017.6 -9.9 -9.999 -99.9 -99.99 -9.99
2020/02/22 12:36 PST    5.46   5.81    8  263   12  54.9  56.1 1017.6 -9.9 -9.999 -99.9 -99.99 -9.99
2020/02/22 12:42 PST    5.33   5.67   12  238   14  54.3  56.1 1017.6 -9.9 -9.999 -99.9 -99.99 -9.99
2020/02/22 12:48 PST    5.20   5.51    9  249   14  54.7  56.1 1017.6 -9.9 -9.999 -99.9 -99.99 -9.99
2020/02/22 12:54 PST    5.07   5.34    9  246   13  54.7  56.3 1017.5 -9.9 -9.999 -99.9 -99.99 -9.99
2020/02/22 13:00 PST    4.93   5.15   11  247   15  54.5  56.3 1017.4 -9.9 -9.999 -99.9 -99.99 -9.99
2020/02/22 13:06 PST    4.79   4.97    9  245   14  54.5  56.3 1017.4 -9.9 -9.999 -99.9 -99.99 -9.99
2020/02/22 13:12 PST    4.64   4.82    8  250   12  55.0  56.3 1017.3 -9.9 -9.999 -99.9 -99.99 -9.99
2020/02/22 13:18 PST    4.49   4.68    7  255   13  55.0  56.3 1017.3 -9.9 -9.999 -99.9 -99.99 -9.99
2020/02/22 13:24 PST    4.34   4.53    8  251   12  55.0  56.3 1017.3 -9.9 -9.999 -99.9 -99.99 -9.99
2020/02/22 13:30 PST    4.19   4.35    8  260   12  54.7  56.3 1017.3 -9.9 -9.999 -99.9 -99.99 -9.99
2020/02/22 13:36 PST    4.03   4.20    8  251   14  54.7  56.3 1017.3 -9.9 -9.999 -99.9 -99.99 -9.99
2020/02/22 13:42 PST    3.87   4.03   11  242   14  54.1  56.5 1017.3 -9.9 -9.999 -99.9 -99.99 -9.99
2020/02/22 13:48 PST    3.71   3.87    9  251   17  54.3  56.5 1017.4 -9.9 -9.999 -99.9 -99.99 -9.99
2020/02/22 13:54 PST    3.55   3.69    7  264   15  54.3  56.5 1017.3 -9.9 -9.999 -99.9 -99.99 -9.99
2020/02/22 14:00 PST    3.39   3.53    8  256   13  54.3  56.5 1017.3 -9.9 -9.999 -99.9 -99.99 -9.99
2020/02/22 14:06 PST    3.23   3.38   10  246   16  53.8  56.5 1017.3 -9.9 -9.999 -99.9 -99.99 -9.99
2020/02/22 14:12 PST    3.07   3.22   10  249   16  53.8  56.7 1017.3 -9.9 -9.999 -99.9 -99.99 -9.99
2020/02/22 14:18 PST    2.91   3.04    9  248   15  53.6  56.7 1017.3 -9.9 -9.999 -99.9 -99.99 -9.99
2020/02/22 14:24 PST    2.75   2.87    8  249   13  53.6  56.7 1017.3 -9.9 -9.999 -99.9 -99.99 -9.99
2020/02/22 14:30 PST    2.59   2.70   11  247   16  53.4  56.7 1017.3 -9.9 -9.999 -99.9 -99.99 -9.99
2020/02/22 14:36 PST    2.44   2.54   12  236   15  53.2  56.7 1017.4 -9.9 -9.999 -99.9 -99.99 -9.99
2020/02/22 14:42 PST    2.28   2.39    9  251   15  53.4  56.7 1017.4 -9.9 -9.999 -99.9 -99.99 -9.99
2020/02/22 14:48 PST    2.13   2.24   12  246   17  52.7  56.8 1017.4 -9.9 -9.999 -99.9 -99.99 -9.99
2020/02/22 14:54 PST    1.98   2.11    9  243   16  53.2  56.8 1017.3 -9.9 -9.999 -99.9 -99.99 -9.99
2020/02/22 15:00 PST    1.83   1.95    9  247   14  53.4  56.8 1017.3 -9.9 -9.999 -99.9 -99.99 -9.99
2020/02/22 15:06 PST    1.69   1.77   11  233   15  52.7  56.8 1017.4 -9.9 -9.999 -99.9 -99.99 -9.99
2020/02/22 15:12 PST    1.54   1.62    8  249   14  53.2  56.8 1017.3 -9.9 -9.999 -99.9 -99.99 -9.99
2020/02/22 15:18 PST    1.41   1.51    5  268   13  53.2  56.8 1017.3 -9.9 -9.999 -99.9 -99.99 -9.99
2020/02/22 15:24 PST    1.27   1.38    8  244   13  53.4  56.8 1017.3 -9.9 -9.999 -99.9 -99.99 -9.99
2020/02/22 15:30 PST    1.14   1.26   10  253   14  53.1  57.0 1017.3 -9.9 -9.999 -99.9 -99.99 -9.99
2020/02/22 15:36 PST    1.01   1.15    7  263   12  53.2  57.0 1017.2 -9.9 -9.999 -99.9 -99.99 -9.99
2020/02/22 15:42 PST    0.89   1.05    7  251   13  53.1  57.0 1017.3 -9.9 -9.999 -99.9 -99.99 -9.99
2020/02/22 15:48 PST    0.77   0.92   11  238   13  52.7  57.0 1017.3 -9.9 -9.999 -99.9 -99.99 -9.99
2020/02/22 15:54 PST    0.65   0.80   10  233   13  52.3  57.2 1017.3 -9.9 -9.999 -99.9 -99.99 -9.99
2020/02/22 16:00 PST    0.54   0.71   10  239   13  52.5  57.2 1017.4 -9.9 -9.999 -99.9 -99.99 -9.99
2020/02/22 16:06 PST    0.44   0.62   11  240   15  52.3  57.2 1017.5 -9.9 -9.999 -99.9 -99.99 -9.99
2020/02/22 16:12 PST    0.34   0.50   13  241   17  52.0  57.2 1017.6 -9.9 -9.999 -99.9 -99.99 -9.99
2020/02/22 16:18 PST    0.24   0.40   10  239   17  52.5  57.2 1017.6 -9.9 -9.999 -99.9 -99.99 -9.99
2020/02/22 16:24 PST    0.16   0.31    9  255   15  52.0  57.2 1017.6 -9.9 -9.999 -99.9 -99.99 -9.99
2020/02/22 16:30 PST    0.07   0.23    7  259   16  52.7  57.2 1017.5 -9.9 -9.999 -99.9 -99.99 -9.99
2020/02/22 16:36 PST   -0.01   0.15    7  254   11  52.3  57.2 1017.5 -9.9 -9.999 -99.9 -99.99 -9.99
2020/02/22 16:42 PST   -0.08   0.07    8  239   11  52.3  57.2 1017.6 -9.9 -9.999 -99.9 -99.99 -9.99
2020/02/22 16:48 PST   -0.14   0.01    7  254   12  52.5  57.4 1017.6 -9.9 -9.999 -99.9 -99.99 -9.99
2020/02/22 16:54 PST   -0.20  -0.06    8  253   15  52.3  57.4 1017.6 -9.9 -9.999 -99.9 -99.99 -9.99
2020/02/22 17:00 PST   -0.25  -0.10    7  261   15  52.3  57.4 1017.6 -9.9 -9.999 -99.9 -99.99 -9.99
2020/02/22 17:06 PST   -0.30  -0.15   11  239   15  52.7  57.4 1017.6 -9.9 -9.999 -99.9 -99.99 -9.99
2020/02/22 17:12 PST   -0.34  -0.21    7  267   14  52.3  57.4 1017.7 -9.9 -9.999 -99.9 -99.99 -9.99
2020/02/22 17:18 PST   -0.37  -0.27    7  257   11  52.3  57.4 1017.8 -9.9 -9.999 -99.9 -99.99 -9.99
2020/02/22 17:24 PST   -0.40  -0.32    6  269   10  52.5  57.4 1017.8 -9.9 -9.999 -99.9 -99.99 -9.99
2020/02/22 17:30 PST   -0.42  -0.31    7  241   11  52.5  57.4 1017.8 -9.9 -9.999 -99.9 -99.99 -9.99
2020/02/22 17:36 PST   -0.43  -0.30    6  254   11  52.5  57.4 1017.8 -9.9 -9.999 -99.9 -99.99 -9.99
2020/02/22 17:42 PST   -0.43  -0.30    7  253   12  52.7  57.6 1017.8 -9.9 -9.999 -99.9 -99.99 -9.99
2020/02/22 17:48 PST   -0.43  -0.31    8  251   12  52.7  57.6 1017.9 -9.9 -9.999 -99.9 -99.99 -9.99
2020/02/22 17:54 PST   -0.42  -0.34    5  274   12  52.3  57.4 1017.9 -9.9 -9.999 -99.9 -99.99 -9.99
2020/02/22 18:00 PST   -0.41  -0.33    5  275    8  52.3  57.4 1017.9 -9.9 -9.999 -99.9 -99.99 -9.99
2020/02/22 18:06 PST   -0.38  -0.29    6  248   11  52.5  57.2 1018.0 -9.9 -9.999 -99.9 -99.99 -9.99
2020/02/22 18:12 PST   -0.35  -0.28    8  249   13  52.3  57.2 1018.0 -9.9 -9.999 -99.9 -99.99 -9.99
2020/02/22 18:18 PST   -0.32  -0.25    5  261   10  52.5  57.2 1018.1 -9.9 -9.999 -99.9 -99.99 -9.99
2020/02/22 18:24 PST   -0.27  -0.20    8  272   10  52.2  57.2 1018.2 -9.9 -9.999 -99.9 -99.99 -9.99
2020/02/22 18:30 PST   -0.22  -0.15    6  263    8  52.3  57.2 1018.2 -9.9 -9.999 -99.9 -99.99 -9.99
2020/02/22 18:36 PST   -0.17  -0.12    6  247   10  52.3  57.2 1018.3 -9.9 -9.999 -99.9 -99.99 -9.99
2020/02/22 18:42 PST   -0.11  -0.05    9  246   12  52.5  57.2 1018.5 -9.9 -9.999 -99.9 -99.99 -9.99
2020/02/22 18:48 PST   -0.04  -0.00    5  257   12  52.3  57.4 1018.5 -9.9 -9.999 -99.9 -99.99 -9.99
2020/02/22 18:54 PST    0.04   0.07    8  251   11  52.3  57.2 1018.6 -9.9 -9.999 -99.9 -99.99 -9.99
2020/02/22 19:00 PST    0.11   0.15    7  264   13  52.2  57.2 1018.6 -9.9 -9.999 -99.9 -99.99 -9.99
2020/02/22 19:06 PST    0.20   0.25    7  243   11  52.2  57.2 1018.6 -9.9 -9.999 -99.9 -99.99 -9.99
2020/02/22 19:12 PST    0.29   0.37    7  245   10  52.3  57.2 1018.7 -9.9 -9.999 -99.9 -99.99 -9.99
2020/02/22 19:18 PST    0.38   0.47    9  242   12  52.2  57.2 1018.8 -9.9 -9.999 -99.9 -99.99 -9.99
2020/02/22 19:24 PST    0.48   0.56    7  247   13  52.2  57.0 1018.8 -9.9 -9.999 -99.9 -99.99 -9.99
2020/02/22 19:30 PST    0.58   0.68   11  224   13  52.2  57.0 1019.0 -9.9 -9.999 -99.9 -99.99 -9.99
2020/02/22 19:36 PST    0.69   0.79    9  237   12  52.0  57.0 1019.0 -9.9 -9.999 -99.9 -99.99 -9.99
2020/02/22 19:42 PST    0.80   0.91    9  232   13  52.3  57.0 1019.1 -9.9 -9.999 -99.9 -99.99 -9.99
2020/02/22 19:48 PST    0.91   1.06   12  230   15  51.8  57.0 1019.2 -9.9 -9.999 -99.9 -99.99 -9.99
2020/02/22 19:54 PST    1.03   1.21   11  236   14  52.2  57.0 1019.3 -9.9 -9.999 -99.9 -99.99 -9.99
2020/02/22 20:00 PST    1.15   1.36    9  237   12  52.2  56.8 1019.3 -9.9 -9.999 -99.9 -99.99 -9.99
2020/02/22 20:06 PST    1.27   1.47    7  253   11  52.0  56.8 1019.4 -9.9 -9.999 -99.9 -99.99 -9.99
2020/02/22 20:12 PST    1.40   1.60    7  264   12  51.8  56.8 1019.5 -9.9 -9.999 -99.9 -99.99 -9.99
2020/02/22 20:18 PST    1.53   1.74   10  234   13  52.3  56.8 1019.6 -9.9 -9.999 -99.9 -99.99 -9.99
2020/02/22 20:24 PST    1.66   1.90    8  237   14  52.0  56.8 1019.6 -9.9 -9.999 -99.9 -99.99 -9.99
2020/02/22 20:30 PST    1.79   2.03    9  231   12  52.0  57.0 1019.8 -9.9 -9.999 -99.9 -99.99 -9.99
2020/02/22 20:36 PST    1.93   2.15    8  235   11  52.2  56.8 1019.8 -9.9 -9.999 -99.9 -99.99 -9.99
2020/02/22 20:42 PST    2.06   2.28    9  240   12  52.2  56.8 1019.9 -9.9 -9.999 -99.9 -99.99 -9.99
2020/02/22 20:48 PST    2.20   2.41    8  238   10  52.2  56.8 1020.0 -9.9 -9.999 -99.9 -99.99 -9.99
2020/02/22 20:54 PST    2.34   2.54    8  231   11  52.2  56.8 1020.1 -9.9 -9.999 -99.9 -99.99 -9.99
2020/02/22 21:00 PST    2.48   2.69    7  242   12  52.2  56.8 1020.3 -9.9 -9.999 -99.9 -99.99 -9.99
2020/02/22 21:06 PST    2.62   2.80    7  250   12  52.0  56.8 1020.4 -9.9 -9.999 -99.9 -99.99 -9.99
2020/02/22 21:12 PST    2.76   2.92    8  233   15  52.0  56.8 1020.5 -9.9 -9.999 -99.9 -99.99 -9.99
2020/02/22 21:18 PST    2.90   3.07    9  229   11  52.0  56.8 1020.6 -9.9 -9.999 -99.9 -99.99 -9.99
2020/02/22 21:24 PST    3.04   3.21    8  219    9  52.2  56.8 1020.6 -9.9 -9.999 -99.9 -99.99 -9.99
2020/02/22 21:30 PST    3.18   3.34    8  245   11  52.3  56.8 1020.7 -9.9 -9.999 -99.9 -99.99 -9.99
2020/02/22 21:36 PST    3.32   3.48    7  240   11  52.2  56.8 1020.7 -9.9 -9.999 -99.9 -99.99 -9.99
2020/02/22 21:42 PST    3.46   3.62    6  228   10  52.3  56.8 1020.7 -9.9 -9.999 -99.9 -99.99 -9.99
2020/02/22 21:48 PST    3.60   3.75    8  238   10  52.2  56.8 1020.9 -9.9 -9.999 -99.9 -99.99 -9.99
2020/02/22 21:54 PST    3.74   3.88    8  234   11  52.2  56.8 1021.0 -9.9 -9.999 -99.9 -99.99 -9.99
2020/02/22 22:00 PST    3.87   4.01   11  232   13  52.3  56.8 1021.0 -9.9 -9.999 -99.9 -99.99 -9.99
2020/02/22 22:06 PST    4.00   4.12    8  259   12  52.2  56.8 1021.1 -9.9 -9.999 -99.9 -99.99 -9.99
2020/02/22 22:12 PST    4.13   4.21    7  234   12  52.3  56.8 1021.1 -9.9 -9.999 -99.9 -99.99 -9.99
2020/02/22 22:18 PST    4.26   4.32   10  235   12  52.0  56.8 1021.1 -9.9 -9.999 -99.9 -99.99 -9.99
2020/02/22 22:24 PST    4.39   4.43   10  239   14  52.2  56.8 1021.0 -9.9 -9.999 -99.9 -99.99 -9.99
2020/02/22 22:30 PST    4.51   4.52    8  241   15  52.0  56.8 1021.0 -9.9 -9.999 -99.9 -99.99 -9.99
2020/02/22 22:36 PST    4.63   4.64    7  251   12  52.0  56.8 1021.0 -9.9 -9.999 -99.9 -99.99 -9.99
2020/02/22 22:42 PST    4.74   4.73    7  239   10  52.2  56.8 1021.0 -9.9 -9.999 -99.9 -99.99 -9.99
2020/02/22 22:48 PST    4.85   4.81    9  231   11  51.8  56.8 1020.9 -9.9 -9.999 -99.9 -99.99 -9.99
2020/02/22 22:54 PST    4.95   4.90    8  232   12  51.8  56.7 1021.0 -9.9 -9.999 -99.9 -99.99 -9.99
2020/02/22 23:00 PST    5.05   4.98    9  233   11  52.0  56.7 1021.1 -9.9 -9.999 -99.9 -99.99 -9.99
2020/02/22 23:06 PST    5.15   5.06    7  238   11  52.2  56.7 1021.2 -9.9 -9.999 -99.9 -99.99 -9.99
2020/02/22 23:12 PST    5.23   5.15    8  235   11  52.0  56.7 1021.1 -9.9 -9.999 -99.9 -99.99 -9.99
2020/02/22 23:18 PST    5.32   5.24    7  242   11  52.0  56.7 1021.1 -9.9 -9.999 -99.9 -99.99 -9.99
2020/02/22 23:24 PST    5.39   5.31    8  242   11  52.2  56.7 1021.1 -9.9 -9.999 -99.9 -99.99 -9.99
2020/02/22 23:30 PST    5.46   5.37    7  238   10  51.8  56.7 1021.2 -9.9 -9.999 -99.9 -99.99 -9.99
2020/02/22 23:36 PST    5.52   5.44    7  238    9  51.4  56.7 1021.2 -9.9 -9.999 -99.9 -99.99 -9.99
2020/02/22 23:42 PST    5.58   5.50    8  228    9  51.6  56.7 1021.1 -9.9 -9.999 -99.9 -99.99 -9.99
2020/02/22 23:48 PST    5.63   5.54    7  224   10  51.6  56.7 1021.2 -9.9 -9.999 -99.9 -99.99 -9.99
2020/02/22 23:54 PST    5.67   5.57    7  233    9  51.4  56.7 1021.2 -9.9 -9.999 -99.9 -99.99 -9.99
2020/02/23 00:00 PST    5.70   5.62    7  232   10  51.8  56.7 1021.2 -9.9 -9.999 -99.9 -99.99 -9.99
2020/02/23 00:06 PST    5.73   5.65    7  241   10  51.6  56.7 1021.2 -9.9 -9.999 -99.9 -99.99 -9.99
2020/02/23 00:12 PST    5.74   5.66    6  240    9  51.6  56.7 1021.2 -9.9 -9.999 -99.9 -99.99 -9.99
2020/02/23 00:18 PST    5.75   5.66    7  236    9  51.6  56.7 1021.3 -9.9 -9.999 -99.9 -99.99 -9.99
2020/02/23 00:24 PST    5.76   5.67    7  240    8  51.6  56.7 1021.3 -9.9 -9.999 -99.9 -99.99 -9.99
2020/02/23 00:30 PST    5.75   5.68    7  243   10  51.6  56.7 1021.4 -9.9 -9.999 -99.9 -99.99 -9.99
2020/02/23 00:36 PST    5.74   5.67    9  236   11  51.4  56.5 1021.4 -9.9 -9.999 -99.9 -99.99 -9.99
2020/02/23 00:42 PST    5.72   5.64    8  237   11  51.4  56.5 1021.4 -9.9 -9.999 -99.9 -99.99 -9.99
2020/02/23 00:48 PST    5.69   5.64    7  229    9  51.3  56.5 1021.4 -9.9 -9.999 -99.9 -99.99 -9.99
2020/02/23 00:54 PST    5.66   5.66    8  215    9  51.1  56.5 1021.4 -9.9 -9.999 -99.9 -99.99 -9.99
2020/02/23 01:00 PST    5.62   5.62    8  231   10  51.1  56.5 1021.6 -9.9 -9.999 -99.9 -99.99 -9.99
2020/02/23 01:06 PST    5.57   5.59    9  237   10  51.4  56.5 1021.7 -9.9 -9.999 -99.9 -99.99 -9.99
2020/02/23 01:12 PST    5.52   5.54    8  235   11  51.3  56.5 1021.7 -9.9 -9.999 -99.9 -99.99 -9.99
2020/02/23 01:18 PST    5.46   5.47   11  233   14  51.1  56.5 1021.8 -9.9 -9.999 -99.9 -99.99 -9.99
2020/02/23 01:24 PST    5.40   5.41   10  241   15  51.3  56.5 1022.0 -9.9 -9.999 -99.9 -99.99 -9.99
2020/02/23 01:30 PST    5.33   5.38    9  243   15  51.3  56.5 1022.1 -9.9 -9.999 -99.9 -99.99 -9.99
2020/02/23 01:36 PST    5.25   5.32    7  251   15  51.3  56.5 1022.2 -9.9 -9.999 -99.9 -99.99 -9.99
2020/02/23 01:42 PST    5.17   5.25   10  263   15  51.1  56.5 1022.4 -9.9 -9.999 -99.9 -99.99 -9.99
2020/02/23 01:48 PST    5.09   5.12    7  278   13  51.3  56.5 1022.6 -9.9 -9.999 -99.9 -99.99 -9.99
2020/02/23 01:54 PST    5.00   5.01    7  276   12  51.3  56.5 1022.5 -9.9 -9.999 -99.9 -99.99 -9.99
2020/02/23 02:00 PST    4.91   4.91    7  270   14  51.3  56.5 1022.3 -9.9 -9.999 -99.9 -99.99 -9.99
2020/02/23 02:06 PST    4.82   4.82    8  263   12  51.3  56.5 1022.3 -9.9 -9.999 -99.9 -99.99 -9.99
2020/02/23 02:12 PST    4.72   4.70   10  283   13  51.1  56.5 1022.4 -9.9 -9.999 -99.9 -99.99 -9.99
2020/02/23 02:18 PST    4.63   4.58   13  284   15  50.9  56.5 1022.4 -9.9 -9.999 -99.9 -99.99 -9.99
2020/02/23 02:24 PST    4.52   4.47   10  284   15  51.1  56.5 1022.5 -9.9 -9.999 -99.9 -99.99 -9.99
2020/02/23 02:30 PST    4.42   4.33    9  284   11  50.9  56.5 1022.5 -9.9 -9.999 -99.9 -99.99 -9.99
2020/02/23 02:36 PST    4.32   4.19    6  284    9  51.1  56.5 1022.4 -9.9 -9.999 -99.9 -99.99 -9.99
2020/02/23 02:42 PST    4.22   4.07    6  284   10  50.9  56.3 1022.4 -9.9 -9.999 -99.9 -99.99 -9.99
2020/02/23 02:48 PST    4.11   3.99    6  269    8  50.7  56.3 1022.3 -9.9 -9.999 -99.9 -99.99 -9.99
2020/02/23 02:54 PST    4.01   3.88    5  272    9  50.9  56.3 1022.3 -9.9 -9.999 -99.9 -99.99 -9.99
2020/02/23 03:00 PST    3.90   3.79    6  277    8  50.7  56.3 1022.4 -9.9 -9.999 -99.9 -99.99 -9.99
2020/02/23 03:06 PST    3.80   3.69    6  278   10  50.7  56.3 1022.3 -9.9 -9.999 -99.9 -99.99 -9.99
2020/02/23 03:12 PST    3.69   3.58    7  279    9  50.7  56.3 1022.4 -9.9 -9.999 -99.9 -99.99 -9.99
2020/02/23 03:18 PST    3.59   3.47    7  276   10  50.5  56.3 1022.4 -9.9 -9.999 -99.9 -99.99 -9.99
2020/02/23 03:24 PST    3.49   3.36    6  278   11  50.5  56.3 1022.5 -9.9 -9.999 -99.9 -99.99 -9.99
2020/02/23 03:30 PST    3.39   3.25    6  277   11  50.5  56.3 1022.5 -9.9 -9.999 -99.9 -99.99 -9.99
2020/02/23 03:36 PST    3.29   3.17    6  276   10  50.5  56.3 1022.4 -9.9 -9.999 -99.9 -99.99 -9.99
2020/02/23 03:42 PST    3.20   3.07    5  268    9  50.5  56.3 1022.4 -9.9 -9.999 -99.9 -99.99 -9.99
2020/02/23 03:48 PST    3.10   2.96    8  262   11  50.5  56.3 1022.4 -9.9 -9.999 -99.9 -99.99 -9.99
2020/02/23 03:54 PST    3.01   2.84    5  268   12  50.5  56.3 1022.4 -9.9 -9.999 -99.9 -99.99 -9.99
2020/02/23 04:00 PST    2.92   2.74    6  262   11  50.4  56.3 1022.5 -9.9 -9.999 -99.9 -99.99 -9.99
2020/02/23 04:06 PST    2.84   2.63    5  266    8  50.4  56.3 1022.6 -9.9 -9.999 -99.9 -99.99 -9.99
2020/02/23 04:12 PST    2.76   2.54    7  264   12  50.5  56.3 1022.7 -9.9 -9.999 -99.9 -99.99 -9.99
2020/02/23 04:18 PST    2.68   2.48    8  276   14  50.4  56.3 1022.7 -9.9 -9.999 -99.9 -99.99 -9.99
2020/02/23 04:24 PST    2.61   2.42    7  271   11  50.5  56.3 1022.9 -9.9 -9.999 -99.9 -99.99 -9.99
2020/02/23 04:30 PST    2.54   2.35    6  268   11  50.5  56.3 1023.0 -9.9 -9.999 -99.9 -99.99 -9.99
2020/02/23 04:36 PST    2.47   2.29    6  271    9  50.5  56.3 1023.1 -9.9 -9.999 -99.9 -99.99 -9.99
2020/02/23 04:42 PST    2.41   2.25    7  265   11  50.4  56.3 1023.2 -9.9 -9.999 -99.9 -99.99 -9.99
2020/02/23 04:48 PST    2.35   2.21    7  279   10  50.5  56.3 1023.2 -9.9 -9.999 -99.9 -99.99 -9.99
2020/02/23 04:54 PST    2.30   2.17    8  274   13  50.7  56.3 1023.3 -9.9 -9.999 -99.9 -99.99 -9.99
2020/02/23 05:00 PST    2.26   2.14    9  270   13  50.5  56.3 1023.4 -9.9 -9.999 -99.9 -99.99 -9.99
2020/02/23 05:06 PST    2.22   2.12   10  270   13  50.7  56.3 1023.4 -9.9 -9.999 -99.9 -99.99 -9.99
2020/02/23 05:12 PST    2.18   2.11   12  278   16  50.7  56.1 1023.5 -9.9 -9.999 -99.9 -99.99 -9.99
2020/02/23 05:18 PST    2.15   2.09   10  272   13  50.7  56.1 1023.5 -9.9 -9.999 -99.9 -99.99 -9.99
2020/02/23 05:24 PST    2.13   2.06    9  276   14  50.9  56.1 1023.6 -9.9 -9.999 -99.9 -99.99 -9.99
2020/02/23 05:30 PST    2.11   2.03    9  280   16  50.9  56.1 1023.6 -9.9 -9.999 -99.9 -99.99 -9.99
2020/02/23 05:36 PST    2.10   2.00   11  281   15  50.7  55.9 1023.7 -9.9 -9.999 -99.9 -99.99 -9.99
2020/02/23 05:42 PST    2.10   1.98   10  281   16  50.9  55.9 1023.8 -9.9 -9.999 -99.9 -99.99 -9.99
2020/02/23 05:48 PST    2.10   1.98   10  282   14  50.9  55.9 1023.9 -9.9 -9.999 -99.9 -99.99 -9.99
2020/02/23 05:54 PST    2.10   2.00   11  286   15  50.9  55.9 1024.0 -9.9 -9.999 -99.9 -99.99 -9.99
2020/02/23 06:00 PST    2.12   2.02    9  283   13  50.9  55.9 1024.1 -9.9 -9.999 -99.9 -99.99 -9.99
2020/02/23 06:06 PST    2.14   2.01    9  280   13  50.9  55.9 1024.2 -9.9 -9.999 -99.9 -99.99 -9.99
2020/02/23 06:12 PST    2.16   2.01    9  281   13  51.1  55.9 1024.3 -9.9 -9.999 -99.9 -99.99 -9.99
2020/02/23 06:18 PST    2.20   2.04    9  281   12  50.9  55.8 1024.4 -9.9 -9.999 -99.9 -99.99 -9.99
2020/02/23 06:24 PST    2.23   2.08    8  279   12  50.7  55.8 1024.6 -9.9 -9.999 -99.9 -99.99 -9.99
2020/02/23 06:30 PST    2.28   2.14    7  275   10  50.9  55.8 1024.6 -9.9 -9.999 -99.9 -99.99 -9.99
2020/02/23 06:36 PST    2.33   2.22    8  278   11  50.7  55.8 1024.7 -9.9 -9.999 -99.9 -99.99 -9.99
2020/02/23 06:42 PST    2.39   2.30    6  277   10  50.7  55.8 1024.7 -9.9 -9.999 -99.9 -99.99 -9.99
2020/02/23 06:48 PST    2.45   2.36    6  278    9  50.5  55.8 1024.8 -9.9 -9.999 -99.9 -99.99 -9.99
2020/02/23 06:54 PST    2.51   2.42    5  277    8  50.5  55.8 1024.7 -9.9 -9.999 -99.9 -99.99 -9.99
2020/02/23 07:00 PST    2.59   2.51    5  266    8  50.7  55.8 1024.8 -9.9 -9.999 -99.9 -99.99 -9.99
2020/02/23 07:06 PST    2.66   2.62    5  269   10  50.5  55.8 1024.7 -9.9 -9.999 -99.9 -99.99 -9.99
2020/02/23 07:12 PST    2.74   2.72    6  277    9  50.7  55.8 1024.9 -9.9 -9.999 -99.9 -99.99 -9.99
2020/02/23 07:18 PST    2.83   2.79    7  273   11  50.5  55.8 1025.1 -9.9 -9.999 -99.9 -99.99 -9.99
2020/02/23 07:24 PST    2.92   2.87    6  275   10  50.7  55.8 1025.3 -9.9 -9.999 -99.9 -99.99 -9.99
2020/02/23 07:30 PST    3.01   2.96    7  276   10  50.7  55.8 1025.4 -9.9 -9.999 -99.9 -99.99 -9.99
2020/02/23 07:36 PST    3.11   3.04    5  273    9  50.9  55.8 1025.5 -9.9 -9.999 -99.9 -99.99 -9.99
2020/02/23 07:42 PST    3.21   3.17    7  277   11  50.9  55.8 1025.6 -9.9 -9.999 -99.9 -99.99 -9.99
2020/02/23 07:48 PST    3.31   3.30    7  272   11  50.9  55.8 1025.8 -9.9 -9.999 -99.9 -99.99 -9.99
2020/02/23 07:54 PST    3.41   3.42    7  273   10  50.9  55.8 1025.9 -9.9 -9.999 -99.9 -99.99 -9.99
2020/02/23 08:00 PST    3.52   3.49    5  276    8  50.9  55.8 1026.0 -9.9 -9.999 -99.9 -99.99 -9.99
2020/02/23 08:06 PST    3.63   3.58    5  270    9  51.1  55.8 1026.2 -9.9 -9.999 -99.9 -99.99 -9.99
2020/02/23 08:12 PST    3.74   3.71    8  278   11  50.9  55.8 1026.4 -9.9 -9.999 -99.9 -99.99 -9.99
2020/02/23 08:18 PST    3.85   3.84    5  274   11  51.1  55.8 1026.5 -9.9 -9.999 -99.9 -99.99 -9.99
2020/02/23 08:24 PST    3.96   3.98    6  265   10  51.3  55.8 1026.6 -9.9 -9.999 -99.9 -99.99 -9.99
2020/02/23 08:30 PST    4.07   4.08    5  272   11  51.3  55.6 1026.7 -9.9 -9.999 -99.9 -99.99 -9.99
2020/02/23 08:36 PST    4.18   4.17    7  278   10  51.6  55.6 1026.8 -9.9 -9.999 -99.9 -99.99 -9.99
2020/02/23 08:42 PST    4.29   4.26    7  281   10  51.8  55.6 1026.9 -9.9 -9.999 -99.9 -99.99 -9.99
2020/02/23 08:48 PST    4.40   4.39    8  280   11  51.6  55.6 1027.0 -9.9 -9.999 -99.9 -99.99 -9.99
2020/02/23 08:54 PST    4.52   4.54    5  270   10  52.0  55.6 1027.0 -9.9 -9.999 -99.9 -99.99 -9.99
2020/02/23 09:00 PST    4.63   4.64    5  282    9  52.2  55.6 1027.1 -9.9 -9.999 -99.9 -99.99 -9.99
2020/02/23 09:06 PST    4.73   4.71    4  271    7  52.3  55.6 1027.1 -9.9 -9.999 -99.9 -99.99 -9.99
2020/02/23 09:12 PST    4.84   4.81    5  283    6  52.3  55.8 1027.2 -9.9 -9.999 -99.9 -99.99 -9.99
2020/02/23 09:18 PST    4.95   4.93    4  275    7  52.2  55.8 1027.3 -9.9 -9.999 -99.9 -99.99 -9.99
2020/02/23 09:24 PST    5.05   5.03    4  278    5  52.3  55.8 1027.4 -9.9 -9.999 -99.9 -99.99 -9.99
2020/02/23 09:30 PST    5.15   5.11    3  274    6  52.5  55.8 1027.5 -9.9 -9.999 -99.9 -99.99 -9.99
2020/02/23 09:36 PST    5.25 -99.99 -999 -999 -999 -99.9 -99.9 -999.9 -9.9 -9.999 -99.9 -99.99 -9.99
2020/02/23 09:42 PST    5.35 -99.99 -999 -999 -999 -99.9 -99.9 -999.9 -9.9 -9.999 -99.9 -99.99 -9.99